<?xml version="1.0" encoding="UTF-8" standalone="no" ?>
<gpx xmlns="http://www.topografix.com/GPX/1/1" xmlns:xsi="http://www.w3.org/2001/XMLSchema-instance" xsi:schemaLocation="http://www.topografix.com/GPX/1/1 http://www.topografix.com/GPX/1/1/gpx.xsd" version="1.1" creator="VisuGPX - https://www.visugpx.com">
  <metadata>
    <name>Baume-les-Messieurs</name>
    <desc><![CDATA[La reculée de Baume les Messieurs est un des sites les plus remarquables du Jura. Le fond de la vallée est surplombé par des falaises spectaculaires de 200 m de haut, dont les belvédères montrent le cirque dans toute sa splendeur. Ce site naturel classé est propice à la randonnée, il offre en outre de nombreux lieux à visiter.
Le GR 59 en fait le tour et il le parcourt à partir de Baume les Messieurs en suivant le haut des falaises.
 Le Dard sort de la grotte au milieu de la paroi verticale de la falaise. Après de fortes pluies les sources du dard sont saisissantes. Après un cours parcourt en surface le Dard tombe le long d\'une falaise de tuf pour formée la plus belle cascade éventail de France et peut être d\'Europe.
superbe rando !!! a éviter par temps de pluie,
car ça crapahute pas mal.
Mais de très beau paysages
à voir.]]></desc>
  </metadata>
  <trk>
    <name><![CDATA[BEAUME LES MESSIEURS]]></name>
    <trkseg>
      <trkpt lat="46.71149" lon="5.64099">
        <ele>295.26</ele>
        <time>2013-08-20T09:40:43Z</time>
      </trkpt>
      <trkpt lat="46.71144" lon="5.64097">
        <ele>302.95</ele>
        <time>2013-08-20T09:41:01Z</time>
      </trkpt>
      <trkpt lat="46.71147" lon="5.64098">
        <ele>304.39</ele>
        <time>2013-08-20T09:41:18Z</time>
      </trkpt>
      <trkpt lat="46.71146" lon="5.64092">
        <ele>304.39</ele>
        <time>2013-08-20T09:41:34Z</time>
      </trkpt>
      <trkpt lat="46.71149" lon="5.64083">
        <ele>305.36</ele>
        <time>2013-08-20T09:41:48Z</time>
      </trkpt>
      <trkpt lat="46.71152" lon="5.64079">
        <ele>302.47</ele>
        <time>2013-08-20T09:41:58Z</time>
      </trkpt>
      <trkpt lat="46.71152" lon="5.64086">
        <ele>301.03</ele>
        <time>2013-08-20T09:42:11Z</time>
      </trkpt>
      <trkpt lat="46.71148" lon="5.64094">
        <ele>301.51</ele>
        <time>2013-08-20T09:42:18Z</time>
      </trkpt>
      <trkpt lat="46.71157" lon="5.64128">
        <ele>298.63</ele>
        <time>2013-08-20T09:42:37Z</time>
      </trkpt>
      <trkpt lat="46.71143" lon="5.64143">
        <ele>298.15</ele>
        <time>2013-08-20T09:42:50Z</time>
      </trkpt>
      <trkpt lat="46.71142" lon="5.64145">
        <ele>298.15</ele>
        <time>2013-08-20T09:43:00Z</time>
      </trkpt>
      <trkpt lat="46.71131" lon="5.6416">
        <ele>300.07</ele>
        <time>2013-08-20T09:43:16Z</time>
      </trkpt>
      <trkpt lat="46.71125" lon="5.64193">
        <ele>301.03</ele>
        <time>2013-08-20T09:43:36Z</time>
      </trkpt>
      <trkpt lat="46.7112" lon="5.64218">
        <ele>304.39</ele>
        <time>2013-08-20T09:43:50Z</time>
      </trkpt>
      <trkpt lat="46.71119" lon="5.64223">
        <ele>303.91</ele>
        <time>2013-08-20T09:43:53Z</time>
      </trkpt>
      <trkpt lat="46.71115" lon="5.64249">
        <ele>303.43</ele>
        <time>2013-08-20T09:44:12Z</time>
      </trkpt>
      <trkpt lat="46.7111" lon="5.64283">
        <ele>303.91</ele>
        <time>2013-08-20T09:44:32Z</time>
      </trkpt>
      <trkpt lat="46.71108" lon="5.64287">
        <ele>301.03</ele>
        <time>2013-08-20T09:44:47Z</time>
      </trkpt>
      <trkpt lat="46.71108" lon="5.64288">
        <ele>301.51</ele>
        <time>2013-08-20T09:45:02Z</time>
      </trkpt>
      <trkpt lat="46.71099" lon="5.64308">
        <ele>301.99</ele>
        <time>2013-08-20T09:45:17Z</time>
      </trkpt>
      <trkpt lat="46.7108" lon="5.64354">
        <ele>302.47</ele>
        <time>2013-08-20T09:45:41Z</time>
      </trkpt>
      <trkpt lat="46.71064" lon="5.64377">
        <ele>303.43</ele>
        <time>2013-08-20T09:46:03Z</time>
      </trkpt>
      <trkpt lat="46.71056" lon="5.64386">
        <ele>303.91</ele>
        <time>2013-08-20T09:46:18Z</time>
      </trkpt>
      <trkpt lat="46.71042" lon="5.64408">
        <ele>302.47</ele>
        <time>2013-08-20T09:46:36Z</time>
      </trkpt>
      <trkpt lat="46.71026" lon="5.64434">
        <ele>304.88</ele>
        <time>2013-08-20T09:46:55Z</time>
      </trkpt>
      <trkpt lat="46.71016" lon="5.64444">
        <ele>306.8</ele>
        <time>2013-08-20T09:47:08Z</time>
      </trkpt>
      <trkpt lat="46.70993" lon="5.64463">
        <ele>305.84</ele>
        <time>2013-08-20T09:47:29Z</time>
      </trkpt>
      <trkpt lat="46.7098" lon="5.64473">
        <ele>305.84</ele>
        <time>2013-08-20T09:47:42Z</time>
      </trkpt>
      <trkpt lat="46.70956" lon="5.64495">
        <ele>306.32</ele>
        <time>2013-08-20T09:48:03Z</time>
      </trkpt>
      <trkpt lat="46.70938" lon="5.6451">
        <ele>307.76</ele>
        <time>2013-08-20T09:48:19Z</time>
      </trkpt>
      <trkpt lat="46.70926" lon="5.64515">
        <ele>307.76</ele>
        <time>2013-08-20T09:48:30Z</time>
      </trkpt>
      <trkpt lat="46.70921" lon="5.64515">
        <ele>307.76</ele>
        <time>2013-08-20T09:48:34Z</time>
      </trkpt>
      <trkpt lat="46.70903" lon="5.64528">
        <ele>308.24</ele>
        <time>2013-08-20T09:48:52Z</time>
      </trkpt>
      <trkpt lat="46.70885" lon="5.64553">
        <ele>308.72</ele>
        <time>2013-08-20T09:49:11Z</time>
      </trkpt>
      <trkpt lat="46.70867" lon="5.64577">
        <ele>309.68</ele>
        <time>2013-08-20T09:49:30Z</time>
      </trkpt>
      <trkpt lat="46.70852" lon="5.64587">
        <ele>308.72</ele>
        <time>2013-08-20T09:49:48Z</time>
      </trkpt>
      <trkpt lat="46.70838" lon="5.64595">
        <ele>306.8</ele>
        <time>2013-08-20T09:50:05Z</time>
      </trkpt>
      <trkpt lat="46.7083" lon="5.646">
        <ele>306.32</ele>
        <time>2013-08-20T09:50:12Z</time>
      </trkpt>
      <trkpt lat="46.70823" lon="5.64608">
        <ele>306.8</ele>
        <time>2013-08-20T09:50:19Z</time>
      </trkpt>
      <trkpt lat="46.7082" lon="5.6461">
        <ele>306.8</ele>
        <time>2013-08-20T09:50:22Z</time>
      </trkpt>
      <trkpt lat="46.70814" lon="5.64614">
        <ele>307.76</ele>
        <time>2013-08-20T09:50:31Z</time>
      </trkpt>
      <trkpt lat="46.70794" lon="5.6462">
        <ele>310.16</ele>
        <time>2013-08-20T09:50:48Z</time>
      </trkpt>
      <trkpt lat="46.70778" lon="5.64626">
        <ele>308.72</ele>
        <time>2013-08-20T09:51:04Z</time>
      </trkpt>
      <trkpt lat="46.70778" lon="5.64626">
        <ele>308.72</ele>
        <time>2013-08-20T09:51:07Z</time>
      </trkpt>
      <trkpt lat="46.70765" lon="5.64634">
        <ele>310.16</ele>
        <time>2013-08-20T09:51:22Z</time>
      </trkpt>
      <trkpt lat="46.70765" lon="5.64634">
        <ele>311.12</ele>
        <time>2013-08-20T09:51:35Z</time>
      </trkpt>
      <trkpt lat="46.70746" lon="5.64639">
        <ele>310.16</ele>
        <time>2013-08-20T09:51:53Z</time>
      </trkpt>
      <trkpt lat="46.70729" lon="5.64652">
        <ele>309.2</ele>
        <time>2013-08-20T09:52:09Z</time>
      </trkpt>
      <trkpt lat="46.70707" lon="5.64661">
        <ele>309.2</ele>
        <time>2013-08-20T09:52:29Z</time>
      </trkpt>
      <trkpt lat="46.70685" lon="5.64666">
        <ele>308.72</ele>
        <time>2013-08-20T09:52:49Z</time>
      </trkpt>
      <trkpt lat="46.70672" lon="5.64669">
        <ele>308.24</ele>
        <time>2013-08-20T09:53:08Z</time>
      </trkpt>
      <trkpt lat="46.70658" lon="5.6467">
        <ele>308.24</ele>
        <time>2013-08-20T09:53:18Z</time>
      </trkpt>
      <trkpt lat="46.70638" lon="5.64659">
        <ele>310.16</ele>
        <time>2013-08-20T09:53:36Z</time>
      </trkpt>
      <trkpt lat="46.70632" lon="5.64656">
        <ele>311.12</ele>
        <time>2013-08-20T09:53:43Z</time>
      </trkpt>
      <trkpt lat="46.70609" lon="5.64657">
        <ele>314.97</ele>
        <time>2013-08-20T09:54:01Z</time>
      </trkpt>
      <trkpt lat="46.70593" lon="5.64652">
        <ele>316.41</ele>
        <time>2013-08-20T09:54:21Z</time>
      </trkpt>
      <trkpt lat="46.70592" lon="5.64652">
        <ele>314.49</ele>
        <time>2013-08-20T09:54:43Z</time>
      </trkpt>
      <trkpt lat="46.70593" lon="5.64654">
        <ele>313.53</ele>
        <time>2013-08-20T09:55:03Z</time>
      </trkpt>
      <trkpt lat="46.70593" lon="5.64655">
        <ele>312.09</ele>
        <time>2013-08-20T09:55:25Z</time>
      </trkpt>
      <trkpt lat="46.70592" lon="5.6465">
        <ele>312.09</ele>
        <time>2013-08-20T09:55:41Z</time>
      </trkpt>
      <trkpt lat="46.70593" lon="5.64647">
        <ele>311.6</ele>
        <time>2013-08-20T09:55:56Z</time>
      </trkpt>
      <trkpt lat="46.70592" lon="5.64639">
        <ele>312.09</ele>
        <time>2013-08-20T09:56:08Z</time>
      </trkpt>
      <trkpt lat="46.70593" lon="5.64627">
        <ele>315.93</ele>
        <time>2013-08-20T09:56:23Z</time>
      </trkpt>
      <trkpt lat="46.70593" lon="5.64622">
        <ele>317.37</ele>
        <time>2013-08-20T09:56:35Z</time>
      </trkpt>
      <trkpt lat="46.70592" lon="5.64619">
        <ele>318.33</ele>
        <time>2013-08-20T09:56:53Z</time>
      </trkpt>
      <trkpt lat="46.70592" lon="5.64616">
        <ele>318.81</ele>
        <time>2013-08-20T09:57:08Z</time>
      </trkpt>
      <trkpt lat="46.70594" lon="5.64608">
        <ele>318.81</ele>
        <time>2013-08-20T09:57:25Z</time>
      </trkpt>
      <trkpt lat="46.70594" lon="5.64608">
        <ele>320.26</ele>
        <time>2013-08-20T09:57:43Z</time>
      </trkpt>
      <trkpt lat="46.70593" lon="5.64616">
        <ele>321.7</ele>
        <time>2013-08-20T09:57:54Z</time>
      </trkpt>
      <trkpt lat="46.70594" lon="5.64618">
        <ele>322.66</ele>
        <time>2013-08-20T09:58:07Z</time>
      </trkpt>
      <trkpt lat="46.70597" lon="5.64617">
        <ele>322.66</ele>
        <time>2013-08-20T09:58:27Z</time>
      </trkpt>
      <trkpt lat="46.70604" lon="5.64607">
        <ele>322.18</ele>
        <time>2013-08-20T09:58:43Z</time>
      </trkpt>
      <trkpt lat="46.70612" lon="5.646">
        <ele>323.14</ele>
        <time>2013-08-20T09:58:55Z</time>
      </trkpt>
      <trkpt lat="46.70627" lon="5.64588">
        <ele>325.06</ele>
        <time>2013-08-20T09:59:15Z</time>
      </trkpt>
      <trkpt lat="46.7064" lon="5.64584">
        <ele>326.5</ele>
        <time>2013-08-20T09:59:32Z</time>
      </trkpt>
      <trkpt lat="46.70655" lon="5.64573">
        <ele>327.95</ele>
        <time>2013-08-20T09:59:50Z</time>
      </trkpt>
      <trkpt lat="46.70666" lon="5.6457">
        <ele>332.27</ele>
        <time>2013-08-20T10:00:06Z</time>
      </trkpt>
      <trkpt lat="46.70664" lon="5.6456">
        <ele>334.68</ele>
        <time>2013-08-20T10:00:25Z</time>
      </trkpt>
      <trkpt lat="46.70658" lon="5.64552">
        <ele>337.56</ele>
        <time>2013-08-20T10:00:41Z</time>
      </trkpt>
      <trkpt lat="46.70659" lon="5.64552">
        <ele>339.48</ele>
        <time>2013-08-20T10:00:58Z</time>
      </trkpt>
      <trkpt lat="46.70654" lon="5.64547">
        <ele>339.96</ele>
        <time>2013-08-20T10:01:12Z</time>
      </trkpt>
      <trkpt lat="46.70651" lon="5.64549">
        <ele>339.48</ele>
        <time>2013-08-20T10:01:26Z</time>
      </trkpt>
      <trkpt lat="46.70651" lon="5.64547">
        <ele>338.52</ele>
        <time>2013-08-20T10:01:51Z</time>
      </trkpt>
      <trkpt lat="46.70652" lon="5.6454">
        <ele>339.48</ele>
        <time>2013-08-20T10:02:07Z</time>
      </trkpt>
      <trkpt lat="46.70644" lon="5.64529">
        <ele>341.41</ele>
        <time>2013-08-20T10:02:23Z</time>
      </trkpt>
      <trkpt lat="46.7064" lon="5.64519">
        <ele>342.85</ele>
        <time>2013-08-20T10:02:37Z</time>
      </trkpt>
      <trkpt lat="46.70639" lon="5.64511">
        <ele>342.37</ele>
        <time>2013-08-20T10:02:51Z</time>
      </trkpt>
      <trkpt lat="46.70634" lon="5.64498">
        <ele>341.89</ele>
        <time>2013-08-20T10:03:05Z</time>
      </trkpt>
      <trkpt lat="46.70631" lon="5.64492">
        <ele>342.85</ele>
        <time>2013-08-20T10:03:17Z</time>
      </trkpt>
      <trkpt lat="46.70631" lon="5.64491">
        <ele>344.29</ele>
        <time>2013-08-20T10:03:35Z</time>
      </trkpt>
      <trkpt lat="46.7063" lon="5.64485">
        <ele>347.17</ele>
        <time>2013-08-20T10:03:50Z</time>
      </trkpt>
      <trkpt lat="46.70629" lon="5.6448">
        <ele>348.62</ele>
        <time>2013-08-20T10:04:08Z</time>
      </trkpt>
      <trkpt lat="46.70629" lon="5.64478">
        <ele>350.06</ele>
        <time>2013-08-20T10:04:23Z</time>
      </trkpt>
      <trkpt lat="46.7063" lon="5.64477">
        <ele>351.02</ele>
        <time>2013-08-20T10:04:47Z</time>
      </trkpt>
      <trkpt lat="46.7063" lon="5.64475">
        <ele>351.98</ele>
        <time>2013-08-20T10:05:10Z</time>
      </trkpt>
      <trkpt lat="46.70629" lon="5.64467">
        <ele>352.94</ele>
        <time>2013-08-20T10:05:23Z</time>
      </trkpt>
      <trkpt lat="46.7062" lon="5.6446">
        <ele>355.83</ele>
        <time>2013-08-20T10:05:36Z</time>
      </trkpt>
      <trkpt lat="46.7062" lon="5.64454">
        <ele>357.75</ele>
        <time>2013-08-20T10:05:52Z</time>
      </trkpt>
      <trkpt lat="46.70618" lon="5.64451">
        <ele>358.23</ele>
        <time>2013-08-20T10:06:04Z</time>
      </trkpt>
      <trkpt lat="46.70618" lon="5.64446">
        <ele>359.19</ele>
        <time>2013-08-20T10:06:23Z</time>
      </trkpt>
      <trkpt lat="46.70616" lon="5.64439">
        <ele>360.15</ele>
        <time>2013-08-20T10:06:40Z</time>
      </trkpt>
      <trkpt lat="46.70615" lon="5.64439">
        <ele>361.59</ele>
        <time>2013-08-20T10:06:57Z</time>
      </trkpt>
      <trkpt lat="46.70614" lon="5.64441">
        <ele>364</ele>
        <time>2013-08-20T10:07:19Z</time>
      </trkpt>
      <trkpt lat="46.70615" lon="5.6444">
        <ele>364</ele>
        <time>2013-08-20T10:07:38Z</time>
      </trkpt>
      <trkpt lat="46.70617" lon="5.64441">
        <ele>364.48</ele>
        <time>2013-08-20T10:07:54Z</time>
      </trkpt>
      <trkpt lat="46.70627" lon="5.64433">
        <ele>364.96</ele>
        <time>2013-08-20T10:08:11Z</time>
      </trkpt>
      <trkpt lat="46.70634" lon="5.64428">
        <ele>365.92</ele>
        <time>2013-08-20T10:08:25Z</time>
      </trkpt>
      <trkpt lat="46.70644" lon="5.64416">
        <ele>366.88</ele>
        <time>2013-08-20T10:08:39Z</time>
      </trkpt>
      <trkpt lat="46.70646" lon="5.64423">
        <ele>367.84</ele>
        <time>2013-08-20T10:08:52Z</time>
      </trkpt>
      <trkpt lat="46.70649" lon="5.64423">
        <ele>369.76</ele>
        <time>2013-08-20T10:09:14Z</time>
      </trkpt>
      <trkpt lat="46.70651" lon="5.64423">
        <ele>371.21</ele>
        <time>2013-08-20T10:09:31Z</time>
      </trkpt>
      <trkpt lat="46.7066" lon="5.64421">
        <ele>371.21</ele>
        <time>2013-08-20T10:09:45Z</time>
      </trkpt>
      <trkpt lat="46.70672" lon="5.64399">
        <ele>372.65</ele>
        <time>2013-08-20T10:10:07Z</time>
      </trkpt>
      <trkpt lat="46.70675" lon="5.64389">
        <ele>374.09</ele>
        <time>2013-08-20T10:10:24Z</time>
      </trkpt>
      <trkpt lat="46.70676" lon="5.64387">
        <ele>376.01</ele>
        <time>2013-08-20T10:10:54Z</time>
      </trkpt>
      <trkpt lat="46.70675" lon="5.64387">
        <ele>377.45</ele>
        <time>2013-08-20T10:11:11Z</time>
      </trkpt>
      <trkpt lat="46.70679" lon="5.64376">
        <ele>377.45</ele>
        <time>2013-08-20T10:11:27Z</time>
      </trkpt>
      <trkpt lat="46.70681" lon="5.64378">
        <ele>378.9</ele>
        <time>2013-08-20T10:11:49Z</time>
      </trkpt>
      <trkpt lat="46.70682" lon="5.64377">
        <ele>378.9</ele>
        <time>2013-08-20T10:12:19Z</time>
      </trkpt>
      <trkpt lat="46.70685" lon="5.64373">
        <ele>379.38</ele>
        <time>2013-08-20T10:12:32Z</time>
      </trkpt>
      <trkpt lat="46.7069" lon="5.64373">
        <ele>382.74</ele>
        <time>2013-08-20T10:12:53Z</time>
      </trkpt>
      <trkpt lat="46.70704" lon="5.6438">
        <ele>387.07</ele>
        <time>2013-08-20T10:13:16Z</time>
      </trkpt>
      <trkpt lat="46.70717" lon="5.64381">
        <ele>393.8</ele>
        <time>2013-08-20T10:13:40Z</time>
      </trkpt>
      <trkpt lat="46.70721" lon="5.64379">
        <ele>396.2</ele>
        <time>2013-08-20T10:14:00Z</time>
      </trkpt>
      <trkpt lat="46.70718" lon="5.64383">
        <ele>397.64</ele>
        <time>2013-08-20T10:14:23Z</time>
      </trkpt>
      <trkpt lat="46.70714" lon="5.64388">
        <ele>402.45</ele>
        <time>2013-08-20T10:14:50Z</time>
      </trkpt>
      <trkpt lat="46.70713" lon="5.64392">
        <ele>406.29</ele>
        <time>2013-08-20T10:15:21Z</time>
      </trkpt>
      <trkpt lat="46.70718" lon="5.64388">
        <ele>407.74</ele>
        <time>2013-08-20T10:15:43Z</time>
      </trkpt>
      <trkpt lat="46.7072" lon="5.64385">
        <ele>410.14</ele>
        <time>2013-08-20T10:15:55Z</time>
      </trkpt>
      <trkpt lat="46.70724" lon="5.64382">
        <ele>410.62</ele>
        <time>2013-08-20T10:16:10Z</time>
      </trkpt>
      <trkpt lat="46.70729" lon="5.64378">
        <ele>411.58</ele>
        <time>2013-08-20T10:16:34Z</time>
      </trkpt>
      <trkpt lat="46.7073" lon="5.64378">
        <ele>411.58</ele>
        <time>2013-08-20T10:16:38Z</time>
      </trkpt>
      <trkpt lat="46.70733" lon="5.64375">
        <ele>412.54</ele>
        <time>2013-08-20T10:16:52Z</time>
      </trkpt>
      <trkpt lat="46.70745" lon="5.64373">
        <ele>414.95</ele>
        <time>2013-08-20T10:17:09Z</time>
      </trkpt>
      <trkpt lat="46.70749" lon="5.64369">
        <ele>418.79</ele>
        <time>2013-08-20T10:17:28Z</time>
      </trkpt>
      <trkpt lat="46.70746" lon="5.64368">
        <ele>421.68</ele>
        <time>2013-08-20T10:17:41Z</time>
      </trkpt>
      <trkpt lat="46.7074" lon="5.64363">
        <ele>425.04</ele>
        <time>2013-08-20T10:17:56Z</time>
      </trkpt>
      <trkpt lat="46.70741" lon="5.64363">
        <ele>426</ele>
        <time>2013-08-20T10:18:22Z</time>
      </trkpt>
      <trkpt lat="46.70736" lon="5.64357">
        <ele>426.48</ele>
        <time>2013-08-20T10:18:39Z</time>
      </trkpt>
      <trkpt lat="46.70735" lon="5.64357">
        <ele>426.96</ele>
        <time>2013-08-20T10:19:00Z</time>
      </trkpt>
      <trkpt lat="46.70731" lon="5.64354">
        <ele>429.85</ele>
        <time>2013-08-20T10:19:18Z</time>
      </trkpt>
      <trkpt lat="46.70723" lon="5.64352">
        <ele>433.69</ele>
        <time>2013-08-20T10:19:32Z</time>
      </trkpt>
      <trkpt lat="46.70719" lon="5.64351">
        <ele>437.06</ele>
        <time>2013-08-20T10:19:45Z</time>
      </trkpt>
      <trkpt lat="46.70718" lon="5.64349">
        <ele>438.5</ele>
        <time>2013-08-20T10:20:01Z</time>
      </trkpt>
      <trkpt lat="46.70719" lon="5.64348">
        <ele>439.94</ele>
        <time>2013-08-20T10:20:19Z</time>
      </trkpt>
      <trkpt lat="46.70719" lon="5.64347">
        <ele>440.42</ele>
        <time>2013-08-20T10:20:46Z</time>
      </trkpt>
      <trkpt lat="46.70712" lon="5.64346">
        <ele>441.86</ele>
        <time>2013-08-20T10:21:01Z</time>
      </trkpt>
      <trkpt lat="46.70708" lon="5.64341">
        <ele>442.34</ele>
        <time>2013-08-20T10:21:17Z</time>
      </trkpt>
      <trkpt lat="46.70701" lon="5.64336">
        <ele>442.34</ele>
        <time>2013-08-20T10:21:41Z</time>
      </trkpt>
      <trkpt lat="46.70697" lon="5.64332">
        <ele>442.82</ele>
        <time>2013-08-20T10:21:54Z</time>
      </trkpt>
      <trkpt lat="46.70691" lon="5.64332">
        <ele>444.75</ele>
        <time>2013-08-20T10:22:14Z</time>
      </trkpt>
      <trkpt lat="46.70678" lon="5.64333">
        <ele>449.55</ele>
        <time>2013-08-20T10:22:28Z</time>
      </trkpt>
      <trkpt lat="46.70665" lon="5.64335">
        <ele>454.36</ele>
        <time>2013-08-20T10:22:46Z</time>
      </trkpt>
      <trkpt lat="46.70659" lon="5.64336">
        <ele>457.72</ele>
        <time>2013-08-20T10:23:02Z</time>
      </trkpt>
      <trkpt lat="46.70659" lon="5.64335">
        <ele>458.21</ele>
        <time>2013-08-20T10:23:26Z</time>
      </trkpt>
      <trkpt lat="46.7066" lon="5.64335">
        <ele>456.76</ele>
        <time>2013-08-20T10:23:57Z</time>
      </trkpt>
      <trkpt lat="46.7066" lon="5.64335">
        <ele>457.24</ele>
        <time>2013-08-20T10:24:27Z</time>
      </trkpt>
      <trkpt lat="46.7066" lon="5.64334">
        <ele>457.72</ele>
        <time>2013-08-20T10:24:55Z</time>
      </trkpt>
      <trkpt lat="46.7066" lon="5.64334">
        <ele>458.21</ele>
        <time>2013-08-20T10:25:25Z</time>
      </trkpt>
      <trkpt lat="46.7066" lon="5.64332">
        <ele>458.21</ele>
        <time>2013-08-20T10:26:00Z</time>
      </trkpt>
      <trkpt lat="46.70659" lon="5.64333">
        <ele>459.17</ele>
        <time>2013-08-20T10:26:20Z</time>
      </trkpt>
      <trkpt lat="46.70658" lon="5.64337">
        <ele>460.61</ele>
        <time>2013-08-20T10:26:43Z</time>
      </trkpt>
      <trkpt lat="46.70656" lon="5.64336">
        <ele>460.61</ele>
        <time>2013-08-20T10:27:02Z</time>
      </trkpt>
      <trkpt lat="46.70654" lon="5.64335">
        <ele>462.53</ele>
        <time>2013-08-20T10:27:19Z</time>
      </trkpt>
      <trkpt lat="46.70654" lon="5.64334">
        <ele>463.01</ele>
        <time>2013-08-20T10:27:38Z</time>
      </trkpt>
      <trkpt lat="46.70662" lon="5.64319">
        <ele>464.45</ele>
        <time>2013-08-20T10:27:59Z</time>
      </trkpt>
      <trkpt lat="46.70668" lon="5.64312">
        <ele>467.34</ele>
        <time>2013-08-20T10:28:24Z</time>
      </trkpt>
      <trkpt lat="46.70674" lon="5.64307">
        <ele>469.26</ele>
        <time>2013-08-20T10:28:43Z</time>
      </trkpt>
      <trkpt lat="46.70678" lon="5.64304">
        <ele>474.07</ele>
        <time>2013-08-20T10:29:01Z</time>
      </trkpt>
      <trkpt lat="46.70685" lon="5.64294">
        <ele>477.91</ele>
        <time>2013-08-20T10:29:21Z</time>
      </trkpt>
      <trkpt lat="46.70684" lon="5.64292">
        <ele>480.8</ele>
        <time>2013-08-20T10:29:41Z</time>
      </trkpt>
      <trkpt lat="46.70678" lon="5.64295">
        <ele>484.16</ele>
        <time>2013-08-20T10:29:55Z</time>
      </trkpt>
      <trkpt lat="46.70679" lon="5.64288">
        <ele>483.68</ele>
        <time>2013-08-20T10:30:14Z</time>
      </trkpt>
      <trkpt lat="46.70679" lon="5.64289">
        <ele>484.64</ele>
        <time>2013-08-20T10:30:37Z</time>
      </trkpt>
      <trkpt lat="46.70681" lon="5.64289">
        <ele>486.08</ele>
        <time>2013-08-20T10:30:59Z</time>
      </trkpt>
      <trkpt lat="46.70677" lon="5.64289">
        <ele>486.08</ele>
        <time>2013-08-20T10:31:24Z</time>
      </trkpt>
      <trkpt lat="46.70676" lon="5.64291">
        <ele>486.08</ele>
        <time>2013-08-20T10:31:50Z</time>
      </trkpt>
      <trkpt lat="46.70675" lon="5.64292">
        <ele>488.01</ele>
        <time>2013-08-20T10:32:09Z</time>
      </trkpt>
      <trkpt lat="46.70675" lon="5.6429">
        <ele>489.45</ele>
        <time>2013-08-20T10:32:28Z</time>
      </trkpt>
      <trkpt lat="46.70671" lon="5.64294">
        <ele>489.45</ele>
        <time>2013-08-20T10:32:44Z</time>
      </trkpt>
      <trkpt lat="46.7065" lon="5.64305">
        <ele>488.97</ele>
        <time>2013-08-20T10:33:07Z</time>
      </trkpt>
      <trkpt lat="46.70642" lon="5.64305">
        <ele>487.53</ele>
        <time>2013-08-20T10:33:26Z</time>
      </trkpt>
      <trkpt lat="46.7064" lon="5.64303">
        <ele>486.56</ele>
        <time>2013-08-20T10:33:44Z</time>
      </trkpt>
      <trkpt lat="46.70637" lon="5.64303">
        <ele>485.12</ele>
        <time>2013-08-20T10:34:09Z</time>
      </trkpt>
      <trkpt lat="46.70638" lon="5.64303">
        <ele>486.08</ele>
        <time>2013-08-20T10:34:22Z</time>
      </trkpt>
      <trkpt lat="46.7063" lon="5.64304">
        <ele>486.08</ele>
        <time>2013-08-20T10:34:38Z</time>
      </trkpt>
      <trkpt lat="46.70611" lon="5.64303">
        <ele>485.6</ele>
        <time>2013-08-20T10:34:56Z</time>
      </trkpt>
      <trkpt lat="46.70595" lon="5.64298">
        <ele>485.12</ele>
        <time>2013-08-20T10:35:12Z</time>
      </trkpt>
      <trkpt lat="46.7057" lon="5.64293">
        <ele>486.56</ele>
        <time>2013-08-20T10:35:34Z</time>
      </trkpt>
      <trkpt lat="46.70569" lon="5.64292">
        <ele>488.01</ele>
        <time>2013-08-20T10:35:51Z</time>
      </trkpt>
      <trkpt lat="46.70567" lon="5.64292">
        <ele>489.45</ele>
        <time>2013-08-20T10:36:09Z</time>
      </trkpt>
      <trkpt lat="46.70557" lon="5.64289">
        <ele>488.49</ele>
        <time>2013-08-20T10:36:25Z</time>
      </trkpt>
      <trkpt lat="46.70543" lon="5.64284">
        <ele>489.93</ele>
        <time>2013-08-20T10:36:40Z</time>
      </trkpt>
      <trkpt lat="46.70529" lon="5.64282">
        <ele>491.37</ele>
        <time>2013-08-20T10:36:57Z</time>
      </trkpt>
      <trkpt lat="46.70515" lon="5.64279">
        <ele>493.29</ele>
        <time>2013-08-20T10:37:14Z</time>
      </trkpt>
      <trkpt lat="46.7051" lon="5.64282">
        <ele>494.74</ele>
        <time>2013-08-20T10:37:31Z</time>
      </trkpt>
      <trkpt lat="46.70499" lon="5.64275">
        <ele>492.81</ele>
        <time>2013-08-20T10:37:52Z</time>
      </trkpt>
      <trkpt lat="46.70489" lon="5.64266">
        <ele>492.33</ele>
        <time>2013-08-20T10:38:10Z</time>
      </trkpt>
      <trkpt lat="46.70496" lon="5.6427">
        <ele>492.81</ele>
        <time>2013-08-20T10:38:22Z</time>
      </trkpt>
      <trkpt lat="46.70503" lon="5.6427">
        <ele>491.85</ele>
        <time>2013-08-20T10:38:37Z</time>
      </trkpt>
      <trkpt lat="46.70491" lon="5.64255">
        <ele>494.74</ele>
        <time>2013-08-20T10:38:56Z</time>
      </trkpt>
      <trkpt lat="46.70481" lon="5.64247">
        <ele>497.62</ele>
        <time>2013-08-20T10:39:13Z</time>
      </trkpt>
      <trkpt lat="46.70474" lon="5.64238">
        <ele>501.95</ele>
        <time>2013-08-20T10:39:28Z</time>
      </trkpt>
      <trkpt lat="46.7047" lon="5.64236">
        <ele>502.91</ele>
        <time>2013-08-20T10:39:43Z</time>
      </trkpt>
      <trkpt lat="46.70464" lon="5.64231">
        <ele>503.87</ele>
        <time>2013-08-20T10:40:00Z</time>
      </trkpt>
      <trkpt lat="46.70458" lon="5.64229">
        <ele>504.83</ele>
        <time>2013-08-20T10:40:14Z</time>
      </trkpt>
      <trkpt lat="46.70455" lon="5.64229">
        <ele>504.83</ele>
        <time>2013-08-20T10:40:17Z</time>
      </trkpt>
      <trkpt lat="46.70443" lon="5.64228">
        <ele>504.35</ele>
        <time>2013-08-20T10:40:34Z</time>
      </trkpt>
      <trkpt lat="46.70424" lon="5.64224">
        <ele>505.31</ele>
        <time>2013-08-20T10:40:54Z</time>
      </trkpt>
      <trkpt lat="46.70419" lon="5.64224">
        <ele>507.23</ele>
        <time>2013-08-20T10:41:17Z</time>
      </trkpt>
      <trkpt lat="46.70415" lon="5.64224">
        <ele>507.23</ele>
        <time>2013-08-20T10:41:21Z</time>
      </trkpt>
      <trkpt lat="46.7039" lon="5.64215">
        <ele>505.79</ele>
        <time>2013-08-20T10:41:43Z</time>
      </trkpt>
      <trkpt lat="46.70378" lon="5.64205">
        <ele>504.83</ele>
        <time>2013-08-20T10:42:02Z</time>
      </trkpt>
      <trkpt lat="46.70376" lon="5.64201">
        <ele>504.35</ele>
        <time>2013-08-20T10:42:16Z</time>
      </trkpt>
      <trkpt lat="46.70369" lon="5.64199">
        <ele>503.87</ele>
        <time>2013-08-20T10:42:22Z</time>
      </trkpt>
      <trkpt lat="46.70348" lon="5.64192">
        <ele>501.46</ele>
        <time>2013-08-20T10:42:41Z</time>
      </trkpt>
      <trkpt lat="46.70345" lon="5.64192">
        <ele>500.98</ele>
        <time>2013-08-20T10:42:58Z</time>
      </trkpt>
      <trkpt lat="46.70325" lon="5.64202">
        <ele>499.06</ele>
        <time>2013-08-20T10:43:13Z</time>
      </trkpt>
      <trkpt lat="46.70318" lon="5.64204">
        <ele>498.1</ele>
        <time>2013-08-20T10:43:20Z</time>
      </trkpt>
      <trkpt lat="46.70301" lon="5.64198">
        <ele>493.77</ele>
        <time>2013-08-20T10:43:38Z</time>
      </trkpt>
      <trkpt lat="46.70297" lon="5.64195">
        <ele>493.77</ele>
        <time>2013-08-20T10:43:41Z</time>
      </trkpt>
      <trkpt lat="46.70281" lon="5.64185">
        <ele>498.1</ele>
        <time>2013-08-20T10:43:58Z</time>
      </trkpt>
      <trkpt lat="46.70266" lon="5.64176">
        <ele>500.5</ele>
        <time>2013-08-20T10:44:14Z</time>
      </trkpt>
      <trkpt lat="46.70264" lon="5.64159">
        <ele>501.95</ele>
        <time>2013-08-20T10:44:31Z</time>
      </trkpt>
      <trkpt lat="46.70258" lon="5.64139">
        <ele>500.98</ele>
        <time>2013-08-20T10:44:51Z</time>
      </trkpt>
      <trkpt lat="46.70237" lon="5.64105">
        <ele>498.58</ele>
        <time>2013-08-20T10:45:18Z</time>
      </trkpt>
      <trkpt lat="46.70235" lon="5.64101">
        <ele>499.06</ele>
        <time>2013-08-20T10:45:36Z</time>
      </trkpt>
      <trkpt lat="46.70227" lon="5.64084">
        <ele>497.62</ele>
        <time>2013-08-20T10:45:52Z</time>
      </trkpt>
      <trkpt lat="46.70228" lon="5.6408">
        <ele>498.58</ele>
        <time>2013-08-20T10:46:04Z</time>
      </trkpt>
      <trkpt lat="46.70231" lon="5.64088">
        <ele>497.14</ele>
        <time>2013-08-20T10:46:12Z</time>
      </trkpt>
      <trkpt lat="46.70237" lon="5.64108">
        <ele>495.7</ele>
        <time>2013-08-20T10:46:29Z</time>
      </trkpt>
      <trkpt lat="46.7024" lon="5.64111">
        <ele>495.7</ele>
        <time>2013-08-20T10:46:46Z</time>
      </trkpt>
      <trkpt lat="46.70242" lon="5.64116">
        <ele>495.22</ele>
        <time>2013-08-20T10:46:59Z</time>
      </trkpt>
      <trkpt lat="46.7026" lon="5.64149">
        <ele>495.22</ele>
        <time>2013-08-20T10:47:19Z</time>
      </trkpt>
      <trkpt lat="46.70263" lon="5.64164">
        <ele>496.18</ele>
        <time>2013-08-20T10:47:28Z</time>
      </trkpt>
      <trkpt lat="46.7026" lon="5.64172">
        <ele>495.7</ele>
        <time>2013-08-20T10:47:41Z</time>
      </trkpt>
      <trkpt lat="46.70261" lon="5.64172">
        <ele>497.62</ele>
        <time>2013-08-20T10:47:55Z</time>
      </trkpt>
      <trkpt lat="46.70262" lon="5.64166">
        <ele>497.62</ele>
        <time>2013-08-20T10:48:09Z</time>
      </trkpt>
      <trkpt lat="46.70263" lon="5.64166">
        <ele>499.54</ele>
        <time>2013-08-20T10:48:22Z</time>
      </trkpt>
      <trkpt lat="46.70263" lon="5.64165">
        <ele>499.54</ele>
        <time>2013-08-20T10:48:49Z</time>
      </trkpt>
      <trkpt lat="46.70263" lon="5.64165">
        <ele>499.54</ele>
        <time>2013-08-20T10:49:25Z</time>
      </trkpt>
      <trkpt lat="46.70262" lon="5.64166">
        <ele>499.54</ele>
        <time>2013-08-20T10:49:50Z</time>
      </trkpt>
      <trkpt lat="46.70262" lon="5.64166">
        <ele>500.02</ele>
        <time>2013-08-20T10:50:14Z</time>
      </trkpt>
      <trkpt lat="46.70263" lon="5.64167">
        <ele>498.58</ele>
        <time>2013-08-20T10:50:42Z</time>
      </trkpt>
      <trkpt lat="46.70263" lon="5.64166">
        <ele>498.58</ele>
        <time>2013-08-20T10:51:09Z</time>
      </trkpt>
      <trkpt lat="46.70263" lon="5.64166">
        <ele>498.1</ele>
        <time>2013-08-20T10:51:22Z</time>
      </trkpt>
      <trkpt lat="46.70262" lon="5.64166">
        <ele>497.62</ele>
        <time>2013-08-20T11:25:47Z</time>
      </trkpt>
      <trkpt lat="46.70262" lon="5.64166">
        <ele>497.62</ele>
        <time>2013-08-20T11:26:11Z</time>
      </trkpt>
      <trkpt lat="46.70262" lon="5.64165">
        <ele>497.62</ele>
        <time>2013-08-20T11:26:33Z</time>
      </trkpt>
      <trkpt lat="46.70262" lon="5.64165">
        <ele>497.62</ele>
        <time>2013-08-20T11:26:49Z</time>
      </trkpt>
      <trkpt lat="46.70262" lon="5.64165">
        <ele>497.62</ele>
        <time>2013-08-20T11:26:54Z</time>
      </trkpt>
      <trkpt lat="46.70266" lon="5.64172">
        <ele>498.1</ele>
        <time>2013-08-20T11:27:07Z</time>
      </trkpt>
      <trkpt lat="46.70268" lon="5.64173">
        <ele>498.58</ele>
        <time>2013-08-20T11:27:33Z</time>
      </trkpt>
      <trkpt lat="46.70268" lon="5.64175">
        <ele>498.1</ele>
        <time>2013-08-20T11:27:52Z</time>
      </trkpt>
      <trkpt lat="46.70267" lon="5.64175">
        <ele>497.62</ele>
        <time>2013-08-20T11:28:06Z</time>
      </trkpt>
      <trkpt lat="46.70259" lon="5.64165">
        <ele>494.74</ele>
        <time>2013-08-20T11:28:22Z</time>
      </trkpt>
      <trkpt lat="46.70254" lon="5.64153">
        <ele>492.33</ele>
        <time>2013-08-20T11:28:38Z</time>
      </trkpt>
      <trkpt lat="46.70245" lon="5.64132">
        <ele>488.49</ele>
        <time>2013-08-20T11:28:57Z</time>
      </trkpt>
      <trkpt lat="46.7023" lon="5.64111">
        <ele>491.85</ele>
        <time>2013-08-20T11:29:15Z</time>
      </trkpt>
      <trkpt lat="46.70217" lon="5.64104">
        <ele>495.7</ele>
        <time>2013-08-20T11:29:26Z</time>
      </trkpt>
      <trkpt lat="46.70198" lon="5.64096">
        <ele>499.54</ele>
        <time>2013-08-20T11:29:42Z</time>
      </trkpt>
      <trkpt lat="46.70178" lon="5.64094">
        <ele>496.66</ele>
        <time>2013-08-20T11:30:00Z</time>
      </trkpt>
      <trkpt lat="46.70164" lon="5.64095">
        <ele>496.66</ele>
        <time>2013-08-20T11:30:17Z</time>
      </trkpt>
      <trkpt lat="46.70162" lon="5.64091">
        <ele>496.18</ele>
        <time>2013-08-20T11:30:45Z</time>
      </trkpt>
      <trkpt lat="46.70161" lon="5.6409">
        <ele>497.62</ele>
        <time>2013-08-20T11:31:00Z</time>
      </trkpt>
      <trkpt lat="46.70158" lon="5.64087">
        <ele>496.66</ele>
        <time>2013-08-20T11:31:15Z</time>
      </trkpt>
      <trkpt lat="46.70157" lon="5.64085">
        <ele>496.66</ele>
        <time>2013-08-20T11:31:35Z</time>
      </trkpt>
      <trkpt lat="46.70145" lon="5.64074">
        <ele>494.74</ele>
        <time>2013-08-20T11:31:51Z</time>
      </trkpt>
      <trkpt lat="46.70131" lon="5.6406">
        <ele>492.81</ele>
        <time>2013-08-20T11:32:08Z</time>
      </trkpt>
      <trkpt lat="46.70129" lon="5.64058">
        <ele>493.29</ele>
        <time>2013-08-20T11:32:10Z</time>
      </trkpt>
      <trkpt lat="46.70112" lon="5.64047">
        <ele>492.33</ele>
        <time>2013-08-20T11:32:28Z</time>
      </trkpt>
      <trkpt lat="46.70102" lon="5.64038">
        <ele>489.93</ele>
        <time>2013-08-20T11:32:44Z</time>
      </trkpt>
      <trkpt lat="46.70091" lon="5.64034">
        <ele>490.41</ele>
        <time>2013-08-20T11:32:55Z</time>
      </trkpt>
      <trkpt lat="46.70079" lon="5.6403">
        <ele>489.93</ele>
        <time>2013-08-20T11:33:13Z</time>
      </trkpt>
      <trkpt lat="46.70075" lon="5.6403">
        <ele>490.89</ele>
        <time>2013-08-20T11:33:31Z</time>
      </trkpt>
      <trkpt lat="46.70075" lon="5.64029">
        <ele>493.29</ele>
        <time>2013-08-20T11:33:49Z</time>
      </trkpt>
      <trkpt lat="46.70074" lon="5.64026">
        <ele>493.77</ele>
        <time>2013-08-20T11:34:14Z</time>
      </trkpt>
      <trkpt lat="46.70073" lon="5.6402">
        <ele>493.77</ele>
        <time>2013-08-20T11:34:18Z</time>
      </trkpt>
      <trkpt lat="46.70066" lon="5.64008">
        <ele>491.85</ele>
        <time>2013-08-20T11:34:33Z</time>
      </trkpt>
      <trkpt lat="46.70062" lon="5.6399">
        <ele>491.85</ele>
        <time>2013-08-20T11:34:49Z</time>
      </trkpt>
      <trkpt lat="46.7006" lon="5.63978">
        <ele>494.26</ele>
        <time>2013-08-20T11:35:06Z</time>
      </trkpt>
      <trkpt lat="46.70055" lon="5.63975">
        <ele>494.26</ele>
        <time>2013-08-20T11:35:10Z</time>
      </trkpt>
      <trkpt lat="46.7004" lon="5.63978">
        <ele>497.14</ele>
        <time>2013-08-20T11:35:25Z</time>
      </trkpt>
      <trkpt lat="46.70022" lon="5.63974">
        <ele>497.14</ele>
        <time>2013-08-20T11:35:43Z</time>
      </trkpt>
      <trkpt lat="46.70019" lon="5.63974">
        <ele>498.1</ele>
        <time>2013-08-20T11:35:47Z</time>
      </trkpt>
      <trkpt lat="46.69992" lon="5.63956">
        <ele>494.74</ele>
        <time>2013-08-20T11:36:14Z</time>
      </trkpt>
      <trkpt lat="46.69986" lon="5.63947">
        <ele>497.14</ele>
        <time>2013-08-20T11:36:28Z</time>
      </trkpt>
      <trkpt lat="46.6998" lon="5.63934">
        <ele>498.58</ele>
        <time>2013-08-20T11:36:41Z</time>
      </trkpt>
      <trkpt lat="46.69974" lon="5.63919">
        <ele>494.74</ele>
        <time>2013-08-20T11:36:59Z</time>
      </trkpt>
      <trkpt lat="46.69969" lon="5.63898">
        <ele>494.26</ele>
        <time>2013-08-20T11:37:14Z</time>
      </trkpt>
      <trkpt lat="46.69957" lon="5.63879">
        <ele>495.7</ele>
        <time>2013-08-20T11:37:32Z</time>
      </trkpt>
      <trkpt lat="46.69946" lon="5.6386">
        <ele>491.85</ele>
        <time>2013-08-20T11:37:48Z</time>
      </trkpt>
      <trkpt lat="46.69943" lon="5.6384">
        <ele>487.53</ele>
        <time>2013-08-20T11:38:05Z</time>
      </trkpt>
      <trkpt lat="46.69937" lon="5.63837">
        <ele>494.74</ele>
        <time>2013-08-20T11:38:18Z</time>
      </trkpt>
      <trkpt lat="46.69934" lon="5.63834">
        <ele>497.14</ele>
        <time>2013-08-20T11:38:30Z</time>
      </trkpt>
      <trkpt lat="46.69928" lon="5.63827">
        <ele>499.54</ele>
        <time>2013-08-20T11:38:46Z</time>
      </trkpt>
      <trkpt lat="46.69928" lon="5.63824">
        <ele>499.54</ele>
        <time>2013-08-20T11:39:06Z</time>
      </trkpt>
      <trkpt lat="46.69928" lon="5.63824">
        <ele>500.02</ele>
        <time>2013-08-20T11:39:26Z</time>
      </trkpt>
      <trkpt lat="46.69908" lon="5.63798">
        <ele>500.98</ele>
        <time>2013-08-20T11:39:45Z</time>
      </trkpt>
      <trkpt lat="46.69888" lon="5.63793">
        <ele>501.95</ele>
        <time>2013-08-20T11:40:04Z</time>
      </trkpt>
      <trkpt lat="46.69867" lon="5.63793">
        <ele>502.43</ele>
        <time>2013-08-20T11:40:23Z</time>
      </trkpt>
      <trkpt lat="46.69857" lon="5.6379">
        <ele>502.91</ele>
        <time>2013-08-20T11:40:40Z</time>
      </trkpt>
      <trkpt lat="46.69849" lon="5.63791">
        <ele>503.87</ele>
        <time>2013-08-20T11:40:54Z</time>
      </trkpt>
      <trkpt lat="46.69849" lon="5.6379">
        <ele>504.35</ele>
        <time>2013-08-20T11:41:10Z</time>
      </trkpt>
      <trkpt lat="46.69843" lon="5.63792">
        <ele>507.71</ele>
        <time>2013-08-20T11:41:24Z</time>
      </trkpt>
      <trkpt lat="46.69843" lon="5.63792">
        <ele>508.19</ele>
        <time>2013-08-20T11:41:31Z</time>
      </trkpt>
      <trkpt lat="46.69838" lon="5.63792">
        <ele>508.19</ele>
        <time>2013-08-20T11:41:35Z</time>
      </trkpt>
      <trkpt lat="46.6981" lon="5.63786">
        <ele>506.75</ele>
        <time>2013-08-20T11:41:55Z</time>
      </trkpt>
      <trkpt lat="46.69802" lon="5.63787">
        <ele>507.23</ele>
        <time>2013-08-20T11:42:02Z</time>
      </trkpt>
      <trkpt lat="46.69787" lon="5.63788">
        <ele>508.19</ele>
        <time>2013-08-20T11:42:14Z</time>
      </trkpt>
      <trkpt lat="46.69766" lon="5.63788">
        <ele>509.64</ele>
        <time>2013-08-20T11:42:33Z</time>
      </trkpt>
      <trkpt lat="46.6974" lon="5.63789">
        <ele>509.16</ele>
        <time>2013-08-20T11:42:55Z</time>
      </trkpt>
      <trkpt lat="46.69729" lon="5.63783">
        <ele>510.12</ele>
        <time>2013-08-20T11:43:10Z</time>
      </trkpt>
      <trkpt lat="46.69726" lon="5.63778">
        <ele>509.16</ele>
        <time>2013-08-20T11:43:17Z</time>
      </trkpt>
      <trkpt lat="46.69717" lon="5.63743">
        <ele>506.27</ele>
        <time>2013-08-20T11:43:39Z</time>
      </trkpt>
      <trkpt lat="46.69707" lon="5.63715">
        <ele>506.27</ele>
        <time>2013-08-20T11:43:58Z</time>
      </trkpt>
      <trkpt lat="46.69707" lon="5.63713">
        <ele>506.75</ele>
        <time>2013-08-20T11:44:14Z</time>
      </trkpt>
      <trkpt lat="46.69705" lon="5.6371">
        <ele>507.23</ele>
        <time>2013-08-20T11:44:29Z</time>
      </trkpt>
      <trkpt lat="46.69692" lon="5.63697">
        <ele>507.71</ele>
        <time>2013-08-20T11:44:43Z</time>
      </trkpt>
      <trkpt lat="46.69691" lon="5.63696">
        <ele>507.71</ele>
        <time>2013-08-20T11:44:44Z</time>
      </trkpt>
      <trkpt lat="46.69677" lon="5.63683">
        <ele>502.91</ele>
        <time>2013-08-20T11:45:02Z</time>
      </trkpt>
      <trkpt lat="46.69665" lon="5.63668">
        <ele>493.77</ele>
        <time>2013-08-20T11:45:21Z</time>
      </trkpt>
      <trkpt lat="46.69662" lon="5.63664">
        <ele>492.33</ele>
        <time>2013-08-20T11:45:25Z</time>
      </trkpt>
      <trkpt lat="46.69653" lon="5.63649">
        <ele>491.85</ele>
        <time>2013-08-20T11:45:33Z</time>
      </trkpt>
      <trkpt lat="46.69631" lon="5.63633">
        <ele>491.85</ele>
        <time>2013-08-20T11:45:52Z</time>
      </trkpt>
      <trkpt lat="46.69618" lon="5.63616">
        <ele>493.77</ele>
        <time>2013-08-20T11:46:12Z</time>
      </trkpt>
      <trkpt lat="46.69616" lon="5.63613">
        <ele>495.7</ele>
        <time>2013-08-20T11:46:22Z</time>
      </trkpt>
      <trkpt lat="46.69609" lon="5.63608">
        <ele>496.18</ele>
        <time>2013-08-20T11:46:33Z</time>
      </trkpt>
      <trkpt lat="46.69599" lon="5.636">
        <ele>493.29</ele>
        <time>2013-08-20T11:46:46Z</time>
      </trkpt>
      <trkpt lat="46.69595" lon="5.63598">
        <ele>497.62</ele>
        <time>2013-08-20T11:46:58Z</time>
      </trkpt>
      <trkpt lat="46.69576" lon="5.63587">
        <ele>495.22</ele>
        <time>2013-08-20T11:47:17Z</time>
      </trkpt>
      <trkpt lat="46.69556" lon="5.63571">
        <ele>492.81</ele>
        <time>2013-08-20T11:47:38Z</time>
      </trkpt>
      <trkpt lat="46.69545" lon="5.63565">
        <ele>501.46</ele>
        <time>2013-08-20T11:47:53Z</time>
      </trkpt>
      <trkpt lat="46.69531" lon="5.63544">
        <ele>499.54</ele>
        <time>2013-08-20T11:48:12Z</time>
      </trkpt>
      <trkpt lat="46.69518" lon="5.63524">
        <ele>494.74</ele>
        <time>2013-08-20T11:48:29Z</time>
      </trkpt>
      <trkpt lat="46.69515" lon="5.63513">
        <ele>490.41</ele>
        <time>2013-08-20T11:48:43Z</time>
      </trkpt>
      <trkpt lat="46.69509" lon="5.63511">
        <ele>497.62</ele>
        <time>2013-08-20T11:49:03Z</time>
      </trkpt>
      <trkpt lat="46.69508" lon="5.63511">
        <ele>499.06</ele>
        <time>2013-08-20T11:49:07Z</time>
      </trkpt>
      <trkpt lat="46.69503" lon="5.63508">
        <ele>502.43</ele>
        <time>2013-08-20T11:49:12Z</time>
      </trkpt>
      <trkpt lat="46.69482" lon="5.635">
        <ele>501.46</ele>
        <time>2013-08-20T11:49:31Z</time>
      </trkpt>
      <trkpt lat="46.69462" lon="5.63496">
        <ele>503.87</ele>
        <time>2013-08-20T11:49:50Z</time>
      </trkpt>
      <trkpt lat="46.69434" lon="5.63488">
        <ele>509.64</ele>
        <time>2013-08-20T11:50:12Z</time>
      </trkpt>
      <trkpt lat="46.69411" lon="5.63478">
        <ele>512.04</ele>
        <time>2013-08-20T11:50:31Z</time>
      </trkpt>
      <trkpt lat="46.69384" lon="5.63461">
        <ele>512.52</ele>
        <time>2013-08-20T11:50:54Z</time>
      </trkpt>
      <trkpt lat="46.69361" lon="5.63448">
        <ele>514.44</ele>
        <time>2013-08-20T11:51:14Z</time>
      </trkpt>
      <trkpt lat="46.6933" lon="5.63434">
        <ele>516.37</ele>
        <time>2013-08-20T11:51:39Z</time>
      </trkpt>
      <trkpt lat="46.69312" lon="5.63431">
        <ele>516.37</ele>
        <time>2013-08-20T11:51:57Z</time>
      </trkpt>
      <trkpt lat="46.69292" lon="5.6343">
        <ele>515.88</ele>
        <time>2013-08-20T11:52:16Z</time>
      </trkpt>
      <trkpt lat="46.69272" lon="5.63431">
        <ele>515.4</ele>
        <time>2013-08-20T11:52:34Z</time>
      </trkpt>
      <trkpt lat="46.69255" lon="5.63441">
        <ele>514.92</ele>
        <time>2013-08-20T11:52:51Z</time>
      </trkpt>
      <trkpt lat="46.69235" lon="5.63457">
        <ele>515.88</ele>
        <time>2013-08-20T11:53:10Z</time>
      </trkpt>
      <trkpt lat="46.69226" lon="5.63467">
        <ele>514.92</ele>
        <time>2013-08-20T11:53:28Z</time>
      </trkpt>
      <trkpt lat="46.69218" lon="5.63469">
        <ele>514.44</ele>
        <time>2013-08-20T11:53:44Z</time>
      </trkpt>
      <trkpt lat="46.69196" lon="5.63481">
        <ele>513.96</ele>
        <time>2013-08-20T11:54:01Z</time>
      </trkpt>
      <trkpt lat="46.69186" lon="5.63486">
        <ele>513</ele>
        <time>2013-08-20T11:54:10Z</time>
      </trkpt>
      <trkpt lat="46.69164" lon="5.63492">
        <ele>514.44</ele>
        <time>2013-08-20T11:54:28Z</time>
      </trkpt>
      <trkpt lat="46.69142" lon="5.63499">
        <ele>518.29</ele>
        <time>2013-08-20T11:54:44Z</time>
      </trkpt>
      <trkpt lat="46.69133" lon="5.63501">
        <ele>524.06</ele>
        <time>2013-08-20T11:55:00Z</time>
      </trkpt>
      <trkpt lat="46.69131" lon="5.63501">
        <ele>524.54</ele>
        <time>2013-08-20T11:55:17Z</time>
      </trkpt>
      <trkpt lat="46.69131" lon="5.63501">
        <ele>524.54</ele>
        <time>2013-08-20T11:55:39Z</time>
      </trkpt>
      <trkpt lat="46.6912" lon="5.63501">
        <ele>525.02</ele>
        <time>2013-08-20T11:55:56Z</time>
      </trkpt>
      <trkpt lat="46.69102" lon="5.63503">
        <ele>524.54</ele>
        <time>2013-08-20T11:56:21Z</time>
      </trkpt>
      <trkpt lat="46.69086" lon="5.63509">
        <ele>524.54</ele>
        <time>2013-08-20T11:56:45Z</time>
      </trkpt>
      <trkpt lat="46.69055" lon="5.63521">
        <ele>524.06</ele>
        <time>2013-08-20T11:57:10Z</time>
      </trkpt>
      <trkpt lat="46.69032" lon="5.6355">
        <ele>523.09</ele>
        <time>2013-08-20T11:57:33Z</time>
      </trkpt>
      <trkpt lat="46.6903" lon="5.63585">
        <ele>525.02</ele>
        <time>2013-08-20T11:57:48Z</time>
      </trkpt>
      <trkpt lat="46.69029" lon="5.63589">
        <ele>525.02</ele>
        <time>2013-08-20T11:57:53Z</time>
      </trkpt>
      <trkpt lat="46.69023" lon="5.63598">
        <ele>525.5</ele>
        <time>2013-08-20T11:57:57Z</time>
      </trkpt>
      <trkpt lat="46.69005" lon="5.63639">
        <ele>524.06</ele>
        <time>2013-08-20T11:58:22Z</time>
      </trkpt>
      <trkpt lat="46.68979" lon="5.63656">
        <ele>520.69</ele>
        <time>2013-08-20T11:58:42Z</time>
      </trkpt>
      <trkpt lat="46.68961" lon="5.63676">
        <ele>516.85</ele>
        <time>2013-08-20T11:58:59Z</time>
      </trkpt>
      <trkpt lat="46.68946" lon="5.63688">
        <ele>511.56</ele>
        <time>2013-08-20T11:59:16Z</time>
      </trkpt>
      <trkpt lat="46.68925" lon="5.63696">
        <ele>502.43</ele>
        <time>2013-08-20T11:59:36Z</time>
      </trkpt>
      <trkpt lat="46.68901" lon="5.63699">
        <ele>496.66</ele>
        <time>2013-08-20T11:59:57Z</time>
      </trkpt>
      <trkpt lat="46.68879" lon="5.63708">
        <ele>498.1</ele>
        <time>2013-08-20T12:00:17Z</time>
      </trkpt>
      <trkpt lat="46.68854" lon="5.63722">
        <ele>500.5</ele>
        <time>2013-08-20T12:00:36Z</time>
      </trkpt>
      <trkpt lat="46.68829" lon="5.63747">
        <ele>503.39</ele>
        <time>2013-08-20T12:01:01Z</time>
      </trkpt>
      <trkpt lat="46.68829" lon="5.63751">
        <ele>503.39</ele>
        <time>2013-08-20T12:01:04Z</time>
      </trkpt>
      <trkpt lat="46.68814" lon="5.63777">
        <ele>503.87</ele>
        <time>2013-08-20T12:01:19Z</time>
      </trkpt>
      <trkpt lat="46.68812" lon="5.63806">
        <ele>505.79</ele>
        <time>2013-08-20T12:01:40Z</time>
      </trkpt>
      <trkpt lat="46.68813" lon="5.63812">
        <ele>506.27</ele>
        <time>2013-08-20T12:01:44Z</time>
      </trkpt>
      <trkpt lat="46.68818" lon="5.63822">
        <ele>508.67</ele>
        <time>2013-08-20T12:02:01Z</time>
      </trkpt>
      <trkpt lat="46.68819" lon="5.63822">
        <ele>508.67</ele>
        <time>2013-08-20T12:02:28Z</time>
      </trkpt>
      <trkpt lat="46.68819" lon="5.63822">
        <ele>508.19</ele>
        <time>2013-08-20T12:02:51Z</time>
      </trkpt>
      <trkpt lat="46.68819" lon="5.63822">
        <ele>508.67</ele>
        <time>2013-08-20T12:03:19Z</time>
      </trkpt>
      <trkpt lat="46.68817" lon="5.6383">
        <ele>509.16</ele>
        <time>2013-08-20T12:03:25Z</time>
      </trkpt>
      <trkpt lat="46.68816" lon="5.63845">
        <ele>510.12</ele>
        <time>2013-08-20T12:03:44Z</time>
      </trkpt>
      <trkpt lat="46.68816" lon="5.63846">
        <ele>510.12</ele>
        <time>2013-08-20T12:04:03Z</time>
      </trkpt>
      <trkpt lat="46.68816" lon="5.63847">
        <ele>509.64</ele>
        <time>2013-08-20T12:04:30Z</time>
      </trkpt>
      <trkpt lat="46.68815" lon="5.6385">
        <ele>509.64</ele>
        <time>2013-08-20T12:04:57Z</time>
      </trkpt>
      <trkpt lat="46.68815" lon="5.63851">
        <ele>510.12</ele>
        <time>2013-08-20T12:05:14Z</time>
      </trkpt>
      <trkpt lat="46.68815" lon="5.63851">
        <ele>510.12</ele>
        <time>2013-08-20T12:05:16Z</time>
      </trkpt>
      <trkpt lat="46.68812" lon="5.63892">
        <ele>512.04</ele>
        <time>2013-08-20T12:05:39Z</time>
      </trkpt>
      <trkpt lat="46.68807" lon="5.63913">
        <ele>512.52</ele>
        <time>2013-08-20T12:05:52Z</time>
      </trkpt>
      <trkpt lat="46.68792" lon="5.63951">
        <ele>509.64</ele>
        <time>2013-08-20T12:06:16Z</time>
      </trkpt>
      <trkpt lat="46.68793" lon="5.63974">
        <ele>507.23</ele>
        <time>2013-08-20T12:06:34Z</time>
      </trkpt>
      <trkpt lat="46.68803" lon="5.63977">
        <ele>506.75</ele>
        <time>2013-08-20T12:06:45Z</time>
      </trkpt>
      <trkpt lat="46.68832" lon="5.63974">
        <ele>504.83</ele>
        <time>2013-08-20T12:07:09Z</time>
      </trkpt>
      <trkpt lat="46.68835" lon="5.63975">
        <ele>505.31</ele>
        <time>2013-08-20T12:07:33Z</time>
      </trkpt>
      <trkpt lat="46.68834" lon="5.63976">
        <ele>505.31</ele>
        <time>2013-08-20T12:07:58Z</time>
      </trkpt>
      <trkpt lat="46.68834" lon="5.63977">
        <ele>505.31</ele>
        <time>2013-08-20T12:08:00Z</time>
      </trkpt>
      <trkpt lat="46.6884" lon="5.64004">
        <ele>505.79</ele>
        <time>2013-08-20T12:08:19Z</time>
      </trkpt>
      <trkpt lat="46.68844" lon="5.6402">
        <ele>504.35</ele>
        <time>2013-08-20T12:08:33Z</time>
      </trkpt>
      <trkpt lat="46.68848" lon="5.64054">
        <ele>501.95</ele>
        <time>2013-08-20T12:08:55Z</time>
      </trkpt>
      <trkpt lat="46.68848" lon="5.64056">
        <ele>500.98</ele>
        <time>2013-08-20T12:09:09Z</time>
      </trkpt>
      <trkpt lat="46.68847" lon="5.64053">
        <ele>501.46</ele>
        <time>2013-08-20T12:09:30Z</time>
      </trkpt>
      <trkpt lat="46.68849" lon="5.64044">
        <ele>500.98</ele>
        <time>2013-08-20T12:09:47Z</time>
      </trkpt>
      <trkpt lat="46.6885" lon="5.64042">
        <ele>500.5</ele>
        <time>2013-08-20T12:09:49Z</time>
      </trkpt>
      <trkpt lat="46.68854" lon="5.64032">
        <ele>496.66</ele>
        <time>2013-08-20T12:10:05Z</time>
      </trkpt>
      <trkpt lat="46.68859" lon="5.64039">
        <ele>493.77</ele>
        <time>2013-08-20T12:10:23Z</time>
      </trkpt>
      <trkpt lat="46.68857" lon="5.64046">
        <ele>488.01</ele>
        <time>2013-08-20T12:10:40Z</time>
      </trkpt>
      <trkpt lat="46.68862" lon="5.6405">
        <ele>485.6</ele>
        <time>2013-08-20T12:11:01Z</time>
      </trkpt>
      <trkpt lat="46.68866" lon="5.64052">
        <ele>485.12</ele>
        <time>2013-08-20T12:11:17Z</time>
      </trkpt>
      <trkpt lat="46.68861" lon="5.64045">
        <ele>485.6</ele>
        <time>2013-08-20T12:11:34Z</time>
      </trkpt>
      <trkpt lat="46.68858" lon="5.64039">
        <ele>485.6</ele>
        <time>2013-08-20T12:11:40Z</time>
      </trkpt>
      <trkpt lat="46.68849" lon="5.64019">
        <ele>487.05</ele>
        <time>2013-08-20T12:11:54Z</time>
      </trkpt>
      <trkpt lat="46.6886" lon="5.64028">
        <ele>487.53</ele>
        <time>2013-08-20T12:12:20Z</time>
      </trkpt>
      <trkpt lat="46.68864" lon="5.64031">
        <ele>487.53</ele>
        <time>2013-08-20T12:12:44Z</time>
      </trkpt>
      <trkpt lat="46.68868" lon="5.64027">
        <ele>487.53</ele>
        <time>2013-08-20T12:12:57Z</time>
      </trkpt>
      <trkpt lat="46.68871" lon="5.64016">
        <ele>491.85</ele>
        <time>2013-08-20T12:13:16Z</time>
      </trkpt>
      <trkpt lat="46.68872" lon="5.64014">
        <ele>492.81</ele>
        <time>2013-08-20T12:13:37Z</time>
      </trkpt>
      <trkpt lat="46.68872" lon="5.64012">
        <ele>492.81</ele>
        <time>2013-08-20T12:14:05Z</time>
      </trkpt>
      <trkpt lat="46.68869" lon="5.64003">
        <ele>492.81</ele>
        <time>2013-08-20T12:14:23Z</time>
      </trkpt>
      <trkpt lat="46.68871" lon="5.64">
        <ele>492.33</ele>
        <time>2013-08-20T12:14:46Z</time>
      </trkpt>
      <trkpt lat="46.68871" lon="5.63998">
        <ele>492.33</ele>
        <time>2013-08-20T12:15:14Z</time>
      </trkpt>
      <trkpt lat="46.68889" lon="5.63651">
        <ele>492.33</ele>
        <time>2013-08-20T12:21:38Z</time>
      </trkpt>
      <trkpt lat="46.68909" lon="5.63705">
        <ele>502.43</ele>
        <time>2013-08-20T12:21:54Z</time>
      </trkpt>
      <trkpt lat="46.68919" lon="5.63725">
        <ele>511.08</ele>
        <time>2013-08-20T12:22:08Z</time>
      </trkpt>
      <trkpt lat="46.68921" lon="5.63772">
        <ele>535.11</ele>
        <time>2013-08-20T12:22:22Z</time>
      </trkpt>
      <trkpt lat="46.68921" lon="5.63808">
        <ele>555.3</ele>
        <time>2013-08-20T12:22:45Z</time>
      </trkpt>
      <trkpt lat="46.68917" lon="5.63821">
        <ele>569.72</ele>
        <time>2013-08-20T12:23:04Z</time>
      </trkpt>
      <trkpt lat="46.6892" lon="5.63822">
        <ele>571.16</ele>
        <time>2013-08-20T12:23:33Z</time>
      </trkpt>
      <trkpt lat="46.68916" lon="5.63817">
        <ele>572.6</ele>
        <time>2013-08-20T12:24:02Z</time>
      </trkpt>
      <trkpt lat="46.68917" lon="5.63821">
        <ele>572.6</ele>
        <time>2013-08-20T12:24:06Z</time>
      </trkpt>
      <trkpt lat="46.68917" lon="5.63829">
        <ele>573.08</ele>
        <time>2013-08-20T12:24:25Z</time>
      </trkpt>
      <trkpt lat="46.68916" lon="5.63824">
        <ele>573.56</ele>
        <time>2013-08-20T12:24:46Z</time>
      </trkpt>
      <trkpt lat="46.68918" lon="5.63828">
        <ele>574.53</ele>
        <time>2013-08-20T12:25:07Z</time>
      </trkpt>
      <trkpt lat="46.68919" lon="5.63829">
        <ele>574.53</ele>
        <time>2013-08-20T12:25:26Z</time>
      </trkpt>
      <trkpt lat="46.68915" lon="5.63838">
        <ele>586.54</ele>
        <time>2013-08-20T12:25:51Z</time>
      </trkpt>
      <trkpt lat="46.68916" lon="5.63838">
        <ele>585.58</ele>
        <time>2013-08-20T12:26:11Z</time>
      </trkpt>
      <trkpt lat="46.68917" lon="5.63837">
        <ele>584.62</ele>
        <time>2013-08-20T12:26:29Z</time>
      </trkpt>
      <trkpt lat="46.68925" lon="5.63838">
        <ele>587.98</ele>
        <time>2013-08-20T12:26:55Z</time>
      </trkpt>
      <trkpt lat="46.68925" lon="5.63837">
        <ele>589.91</ele>
        <time>2013-08-20T12:27:16Z</time>
      </trkpt>
      <trkpt lat="46.68927" lon="5.63842">
        <ele>590.39</ele>
        <time>2013-08-20T12:27:33Z</time>
      </trkpt>
      <trkpt lat="46.68929" lon="5.6385">
        <ele>590.39</ele>
        <time>2013-08-20T12:27:52Z</time>
      </trkpt>
      <trkpt lat="46.68929" lon="5.63853">
        <ele>590.87</ele>
        <time>2013-08-20T12:28:16Z</time>
      </trkpt>
      <trkpt lat="46.68928" lon="5.63855">
        <ele>591.35</ele>
        <time>2013-08-20T12:28:38Z</time>
      </trkpt>
      <trkpt lat="46.68927" lon="5.63857">
        <ele>591.35</ele>
        <time>2013-08-20T12:29:05Z</time>
      </trkpt>
      <trkpt lat="46.68928" lon="5.63859">
        <ele>594.23</ele>
        <time>2013-08-20T12:29:26Z</time>
      </trkpt>
      <trkpt lat="46.68925" lon="5.6387">
        <ele>609.61</ele>
        <time>2013-08-20T12:29:44Z</time>
      </trkpt>
      <trkpt lat="46.68936" lon="5.63869">
        <ele>609.13</ele>
        <time>2013-08-20T12:30:04Z</time>
      </trkpt>
      <trkpt lat="46.68949" lon="5.63858">
        <ele>605.29</ele>
        <time>2013-08-20T12:30:12Z</time>
      </trkpt>
      <trkpt lat="46.68953" lon="5.63848">
        <ele>604.33</ele>
        <time>2013-08-20T12:30:32Z</time>
      </trkpt>
      <trkpt lat="46.68951" lon="5.6386">
        <ele>604.81</ele>
        <time>2013-08-20T12:30:47Z</time>
      </trkpt>
      <trkpt lat="46.68949" lon="5.63864">
        <ele>604.33</ele>
        <time>2013-08-20T12:31:06Z</time>
      </trkpt>
      <trkpt lat="46.68952" lon="5.63862">
        <ele>603.85</ele>
        <time>2013-08-20T12:31:11Z</time>
      </trkpt>
      <trkpt lat="46.68959" lon="5.63886">
        <ele>603.85</ele>
        <time>2013-08-20T12:31:30Z</time>
      </trkpt>
      <trkpt lat="46.6897" lon="5.63892">
        <ele>603.36</ele>
        <time>2013-08-20T12:31:48Z</time>
      </trkpt>
      <trkpt lat="46.68983" lon="5.63893">
        <ele>600</ele>
        <time>2013-08-20T12:32:03Z</time>
      </trkpt>
      <trkpt lat="46.68984" lon="5.63893">
        <ele>598.56</ele>
        <time>2013-08-20T12:32:31Z</time>
      </trkpt>
      <trkpt lat="46.68987" lon="5.63895">
        <ele>598.08</ele>
        <time>2013-08-20T12:32:49Z</time>
      </trkpt>
      <trkpt lat="46.68986" lon="5.63896">
        <ele>599.52</ele>
        <time>2013-08-20T12:33:06Z</time>
      </trkpt>
      <trkpt lat="46.68984" lon="5.63898">
        <ele>605.77</ele>
        <time>2013-08-20T12:33:23Z</time>
      </trkpt>
      <trkpt lat="46.68981" lon="5.63899">
        <ele>618.26</ele>
        <time>2013-08-20T12:33:49Z</time>
      </trkpt>
      <trkpt lat="46.68981" lon="5.63902">
        <ele>618.75</ele>
        <time>2013-08-20T12:34:10Z</time>
      </trkpt>
      <trkpt lat="46.68981" lon="5.63902">
        <ele>618.26</ele>
        <time>2013-08-20T12:34:13Z</time>
      </trkpt>
      <trkpt lat="46.68977" lon="5.639">
        <ele>614.42</ele>
        <time>2013-08-20T12:34:26Z</time>
      </trkpt>
      <trkpt lat="46.68976" lon="5.63898">
        <ele>610.09</ele>
        <time>2013-08-20T12:34:39Z</time>
      </trkpt>
      <trkpt lat="46.68975" lon="5.63896">
        <ele>610.09</ele>
        <time>2013-08-20T12:34:40Z</time>
      </trkpt>
      <trkpt lat="46.68973" lon="5.63891">
        <ele>610.09</ele>
        <time>2013-08-20T12:34:42Z</time>
      </trkpt>
      <trkpt lat="46.68962" lon="5.6387">
        <ele>609.13</ele>
        <time>2013-08-20T12:34:57Z</time>
      </trkpt>
      <trkpt lat="46.68955" lon="5.63865">
        <ele>609.13</ele>
        <time>2013-08-20T12:35:01Z</time>
      </trkpt>
      <trkpt lat="46.68939" lon="5.63842">
        <ele>608.65</ele>
        <time>2013-08-20T12:35:16Z</time>
      </trkpt>
      <trkpt lat="46.68945" lon="5.63837">
        <ele>605.29</ele>
        <time>2013-08-20T12:35:20Z</time>
      </trkpt>
      <trkpt lat="46.68938" lon="5.6384">
        <ele>595.19</ele>
        <time>2013-08-20T12:35:33Z</time>
      </trkpt>
      <trkpt lat="46.68933" lon="5.63848">
        <ele>593.27</ele>
        <time>2013-08-20T12:35:45Z</time>
      </trkpt>
      <trkpt lat="46.68929" lon="5.63854">
        <ele>594.23</ele>
        <time>2013-08-20T12:36:00Z</time>
      </trkpt>
      <trkpt lat="46.68926" lon="5.63856">
        <ele>595.67</ele>
        <time>2013-08-20T12:36:14Z</time>
      </trkpt>
      <trkpt lat="46.68924" lon="5.63857">
        <ele>597.6</ele>
        <time>2013-08-20T12:36:28Z</time>
      </trkpt>
      <trkpt lat="46.68921" lon="5.63861">
        <ele>598.56</ele>
        <time>2013-08-20T12:36:41Z</time>
      </trkpt>
      <trkpt lat="46.68915" lon="5.63864">
        <ele>599.52</ele>
        <time>2013-08-20T12:36:52Z</time>
      </trkpt>
      <trkpt lat="46.68907" lon="5.63862">
        <ele>601.92</ele>
        <time>2013-08-20T12:37:12Z</time>
      </trkpt>
      <trkpt lat="46.68908" lon="5.63865">
        <ele>601.44</ele>
        <time>2013-08-20T12:37:32Z</time>
      </trkpt>
      <trkpt lat="46.68905" lon="5.63859">
        <ele>600.96</ele>
        <time>2013-08-20T12:37:46Z</time>
      </trkpt>
      <trkpt lat="46.68891" lon="5.63887">
        <ele>601.92</ele>
        <time>2013-08-20T12:38:03Z</time>
      </trkpt>
      <trkpt lat="46.68881" lon="5.63925">
        <ele>601.44</ele>
        <time>2013-08-20T12:38:24Z</time>
      </trkpt>
      <trkpt lat="46.68884" lon="5.63922">
        <ele>600.48</ele>
        <time>2013-08-20T12:38:46Z</time>
      </trkpt>
      <trkpt lat="46.68893" lon="5.63921">
        <ele>600.48</ele>
        <time>2013-08-20T12:39:06Z</time>
      </trkpt>
      <trkpt lat="46.68908" lon="5.63914">
        <ele>600</ele>
        <time>2013-08-20T12:39:22Z</time>
      </trkpt>
      <trkpt lat="46.68909" lon="5.63914">
        <ele>600</ele>
        <time>2013-08-20T12:39:23Z</time>
      </trkpt>
      <trkpt lat="46.68919" lon="5.63918">
        <ele>600</ele>
        <time>2013-08-20T12:39:32Z</time>
      </trkpt>
      <trkpt lat="46.68923" lon="5.6392">
        <ele>600</ele>
        <time>2013-08-20T12:39:35Z</time>
      </trkpt>
      <trkpt lat="46.68935" lon="5.63944">
        <ele>600</ele>
        <time>2013-08-20T12:39:53Z</time>
      </trkpt>
      <trkpt lat="46.68963" lon="5.63955">
        <ele>603.36</ele>
        <time>2013-08-20T12:40:15Z</time>
      </trkpt>
      <trkpt lat="46.68981" lon="5.63941">
        <ele>613.94</ele>
        <time>2013-08-20T12:40:26Z</time>
      </trkpt>
      <trkpt lat="46.69002" lon="5.63917">
        <ele>623.55</ele>
        <time>2013-08-20T12:40:43Z</time>
      </trkpt>
      <trkpt lat="46.68995" lon="5.63905">
        <ele>640.38</ele>
        <time>2013-08-20T12:41:02Z</time>
      </trkpt>
      <trkpt lat="46.69001" lon="5.6391">
        <ele>641.82</ele>
        <time>2013-08-20T12:41:22Z</time>
      </trkpt>
      <trkpt lat="46.69002" lon="5.63911">
        <ele>645.66</ele>
        <time>2013-08-20T12:41:39Z</time>
      </trkpt>
      <trkpt lat="46.69004" lon="5.63909">
        <ele>646.14</ele>
        <time>2013-08-20T12:41:56Z</time>
      </trkpt>
      <trkpt lat="46.69004" lon="5.63907">
        <ele>646.14</ele>
        <time>2013-08-20T12:42:21Z</time>
      </trkpt>
      <trkpt lat="46.69007" lon="5.63901">
        <ele>646.62</ele>
        <time>2013-08-20T12:42:48Z</time>
      </trkpt>
      <trkpt lat="46.69007" lon="5.63897">
        <ele>646.62</ele>
        <time>2013-08-20T12:43:23Z</time>
      </trkpt>
      <trkpt lat="46.69007" lon="5.63895">
        <ele>646.62</ele>
        <time>2013-08-20T12:43:49Z</time>
      </trkpt>
      <trkpt lat="46.69007" lon="5.63893">
        <ele>646.62</ele>
        <time>2013-08-20T12:44:02Z</time>
      </trkpt>
      <trkpt lat="46.69004" lon="5.63888">
        <ele>646.62</ele>
        <time>2013-08-20T12:44:25Z</time>
      </trkpt>
      <trkpt lat="46.69029" lon="5.63828">
        <ele>647.1</ele>
        <time>2013-08-20T12:45:18Z</time>
      </trkpt>
      <trkpt lat="46.69035" lon="5.63818">
        <ele>651.43</ele>
        <time>2013-08-20T12:46:08Z</time>
      </trkpt>
      <trkpt lat="46.69033" lon="5.63835">
        <ele>659.12</ele>
        <time>2013-08-20T12:46:27Z</time>
      </trkpt>
      <trkpt lat="46.69026" lon="5.63844">
        <ele>660.08</ele>
        <time>2013-08-20T12:46:45Z</time>
      </trkpt>
      <trkpt lat="46.69031" lon="5.63844">
        <ele>660.08</ele>
        <time>2013-08-20T12:47:01Z</time>
      </trkpt>
      <trkpt lat="46.69035" lon="5.63839">
        <ele>660.08</ele>
        <time>2013-08-20T12:47:20Z</time>
      </trkpt>
      <trkpt lat="46.69043" lon="5.63836">
        <ele>662.01</ele>
        <time>2013-08-20T12:47:38Z</time>
      </trkpt>
      <trkpt lat="46.6905" lon="5.63832">
        <ele>665.37</ele>
        <time>2013-08-20T12:48:04Z</time>
      </trkpt>
      <trkpt lat="46.69052" lon="5.63827">
        <ele>665.37</ele>
        <time>2013-08-20T12:48:31Z</time>
      </trkpt>
      <trkpt lat="46.69053" lon="5.63825">
        <ele>667.77</ele>
        <time>2013-08-20T12:49:00Z</time>
      </trkpt>
      <trkpt lat="46.69055" lon="5.63821">
        <ele>666.81</ele>
        <time>2013-08-20T12:49:24Z</time>
      </trkpt>
      <trkpt lat="46.69055" lon="5.63823">
        <ele>666.81</ele>
        <time>2013-08-20T12:49:41Z</time>
      </trkpt>
      <trkpt lat="46.69057" lon="5.63818">
        <ele>666.81</ele>
        <time>2013-08-20T12:50:02Z</time>
      </trkpt>
      <trkpt lat="46.69051" lon="5.63821">
        <ele>666.81</ele>
        <time>2013-08-20T12:50:54Z</time>
      </trkpt>
      <trkpt lat="46.69053" lon="5.63821">
        <ele>666.81</ele>
        <time>2013-08-20T12:51:22Z</time>
      </trkpt>
      <trkpt lat="46.69052" lon="5.63823">
        <ele>666.81</ele>
        <time>2013-08-20T12:51:53Z</time>
      </trkpt>
      <trkpt lat="46.69055" lon="5.63825">
        <ele>666.81</ele>
        <time>2013-08-20T12:52:13Z</time>
      </trkpt>
      <trkpt lat="46.69058" lon="5.63821">
        <ele>666.81</ele>
        <time>2013-08-20T12:52:36Z</time>
      </trkpt>
      <trkpt lat="46.6906" lon="5.6382">
        <ele>666.81</ele>
        <time>2013-08-20T12:52:55Z</time>
      </trkpt>
      <trkpt lat="46.69062" lon="5.63814">
        <ele>666.81</ele>
        <time>2013-08-20T12:53:15Z</time>
      </trkpt>
      <trkpt lat="46.69064" lon="5.63815">
        <ele>666.81</ele>
        <time>2013-08-20T12:53:27Z</time>
      </trkpt>
      <trkpt lat="46.69071" lon="5.63809">
        <ele>670.66</ele>
        <time>2013-08-20T12:54:13Z</time>
      </trkpt>
      <trkpt lat="46.69072" lon="5.63808">
        <ele>670.66</ele>
        <time>2013-08-20T12:54:19Z</time>
      </trkpt>
      <trkpt lat="46.69091" lon="5.63797">
        <ele>672.1</ele>
        <time>2013-08-20T12:54:54Z</time>
      </trkpt>
      <trkpt lat="46.69108" lon="5.63782">
        <ele>724.49</ele>
        <time>2013-08-20T12:55:14Z</time>
      </trkpt>
      <trkpt lat="46.6912" lon="5.63779">
        <ele>742.76</ele>
        <time>2013-08-20T12:55:33Z</time>
      </trkpt>
      <trkpt lat="46.69119" lon="5.63787">
        <ele>742.76</ele>
        <time>2013-08-20T12:55:37Z</time>
      </trkpt>
      <trkpt lat="46.69129" lon="5.63805">
        <ele>743.24</ele>
        <time>2013-08-20T12:55:55Z</time>
      </trkpt>
      <trkpt lat="46.6914" lon="5.63802">
        <ele>743.24</ele>
        <time>2013-08-20T12:56:15Z</time>
      </trkpt>
      <trkpt lat="46.69137" lon="5.63811">
        <ele>746.6</ele>
        <time>2013-08-20T12:56:57Z</time>
      </trkpt>
      <trkpt lat="46.69144" lon="5.638">
        <ele>765.35</ele>
        <time>2013-08-20T12:57:20Z</time>
      </trkpt>
      <trkpt lat="46.69142" lon="5.63803">
        <ele>765.35</ele>
        <time>2013-08-20T12:57:43Z</time>
      </trkpt>
      <trkpt lat="46.69143" lon="5.63803">
        <ele>765.83</ele>
        <time>2013-08-20T12:57:57Z</time>
      </trkpt>
      <trkpt lat="46.69128" lon="5.63826">
        <ele>763.42</ele>
        <time>2013-08-20T12:58:18Z</time>
      </trkpt>
      <trkpt lat="46.69128" lon="5.63827">
        <ele>766.79</ele>
        <time>2013-08-20T12:58:41Z</time>
      </trkpt>
      <trkpt lat="46.69135" lon="5.63829">
        <ele>766.31</ele>
        <time>2013-08-20T12:58:56Z</time>
      </trkpt>
      <trkpt lat="46.69152" lon="5.63804">
        <ele>764.87</ele>
        <time>2013-08-20T12:59:12Z</time>
      </trkpt>
      <trkpt lat="46.69159" lon="5.63794">
        <ele>763.9</ele>
        <time>2013-08-20T12:59:33Z</time>
      </trkpt>
      <trkpt lat="46.69168" lon="5.63782">
        <ele>764.39</ele>
        <time>2013-08-20T12:59:45Z</time>
      </trkpt>
      <trkpt lat="46.69199" lon="5.63746">
        <ele>759.1</ele>
        <time>2013-08-20T13:00:06Z</time>
      </trkpt>
      <trkpt lat="46.69201" lon="5.63741">
        <ele>754.77</ele>
        <time>2013-08-20T13:00:27Z</time>
      </trkpt>
      <trkpt lat="46.69199" lon="5.6374">
        <ele>752.37</ele>
        <time>2013-08-20T13:00:47Z</time>
      </trkpt>
      <trkpt lat="46.69207" lon="5.63733">
        <ele>753.81</ele>
        <time>2013-08-20T13:01:07Z</time>
      </trkpt>
      <trkpt lat="46.69216" lon="5.63724">
        <ele>754.29</ele>
        <time>2013-08-20T13:01:34Z</time>
      </trkpt>
      <trkpt lat="46.692" lon="5.6373">
        <ele>750.93</ele>
        <time>2013-08-20T13:01:55Z</time>
      </trkpt>
      <trkpt lat="46.69192" lon="5.63734">
        <ele>750.45</ele>
        <time>2013-08-20T13:02:20Z</time>
      </trkpt>
      <trkpt lat="46.69186" lon="5.63732">
        <ele>749.49</ele>
        <time>2013-08-20T13:02:48Z</time>
      </trkpt>
      <trkpt lat="46.69178" lon="5.63733">
        <ele>748.52</ele>
        <time>2013-08-20T13:03:14Z</time>
      </trkpt>
      <trkpt lat="46.69173" lon="5.63732">
        <ele>747.56</ele>
        <time>2013-08-20T13:03:42Z</time>
      </trkpt>
      <trkpt lat="46.69173" lon="5.63731">
        <ele>746.6</ele>
        <time>2013-08-20T13:04:08Z</time>
      </trkpt>
      <trkpt lat="46.69174" lon="5.63732">
        <ele>745.64</ele>
        <time>2013-08-20T13:04:33Z</time>
      </trkpt>
      <trkpt lat="46.69173" lon="5.63734">
        <ele>744.68</ele>
        <time>2013-08-20T13:05:00Z</time>
      </trkpt>
      <trkpt lat="46.6917" lon="5.63736">
        <ele>743.72</ele>
        <time>2013-08-20T13:05:28Z</time>
      </trkpt>
      <trkpt lat="46.69165" lon="5.63737">
        <ele>742.76</ele>
        <time>2013-08-20T13:05:54Z</time>
      </trkpt>
      <trkpt lat="46.69161" lon="5.63737">
        <ele>741.31</ele>
        <time>2013-08-20T13:06:20Z</time>
      </trkpt>
      <trkpt lat="46.69157" lon="5.63737">
        <ele>740.35</ele>
        <time>2013-08-20T13:06:47Z</time>
      </trkpt>
      <trkpt lat="46.69042" lon="5.63752">
        <ele>738.91</ele>
        <time>2013-08-20T13:07:16Z</time>
      </trkpt>
      <trkpt lat="46.69033" lon="5.63755">
        <ele>734.1</ele>
        <time>2013-08-20T13:07:44Z</time>
      </trkpt>
      <trkpt lat="46.6903" lon="5.63757">
        <ele>727.86</ele>
        <time>2013-08-20T13:08:12Z</time>
      </trkpt>
      <trkpt lat="46.6903" lon="5.6376">
        <ele>713.44</ele>
        <time>2013-08-20T13:08:41Z</time>
      </trkpt>
      <trkpt lat="46.69029" lon="5.6376">
        <ele>710.55</ele>
        <time>2013-08-20T13:09:09Z</time>
      </trkpt>
      <trkpt lat="46.69026" lon="5.63749">
        <ele>723.53</ele>
        <time>2013-08-20T13:09:39Z</time>
      </trkpt>
      <trkpt lat="46.69026" lon="5.63749">
        <ele>723.05</ele>
        <time>2013-08-20T13:10:11Z</time>
      </trkpt>
      <trkpt lat="46.69025" lon="5.63762">
        <ele>701.9</ele>
        <time>2013-08-20T13:10:45Z</time>
      </trkpt>
      <trkpt lat="46.69024" lon="5.63762">
        <ele>699.02</ele>
        <time>2013-08-20T13:11:06Z</time>
      </trkpt>
      <trkpt lat="46.69023" lon="5.63763">
        <ele>699.02</ele>
        <time>2013-08-20T13:11:32Z</time>
      </trkpt>
      <trkpt lat="46.69022" lon="5.63763">
        <ele>699.02</ele>
        <time>2013-08-20T13:12:01Z</time>
      </trkpt>
      <trkpt lat="46.69021" lon="5.63763">
        <ele>699.02</ele>
        <time>2013-08-20T13:12:29Z</time>
      </trkpt>
      <trkpt lat="46.6902" lon="5.63762">
        <ele>698.53</ele>
        <time>2013-08-20T13:13:00Z</time>
      </trkpt>
      <trkpt lat="46.69019" lon="5.63761">
        <ele>698.53</ele>
        <time>2013-08-20T13:13:30Z</time>
      </trkpt>
      <trkpt lat="46.69017" lon="5.63761">
        <ele>698.53</ele>
        <time>2013-08-20T13:14:01Z</time>
      </trkpt>
      <trkpt lat="46.69016" lon="5.6376">
        <ele>698.05</ele>
        <time>2013-08-20T13:14:28Z</time>
      </trkpt>
      <trkpt lat="46.69007" lon="5.63729">
        <ele>724.97</ele>
        <time>2013-08-20T13:14:44Z</time>
      </trkpt>
      <trkpt lat="46.69006" lon="5.6373">
        <ele>723.53</ele>
        <time>2013-08-20T13:15:00Z</time>
      </trkpt>
      <trkpt lat="46.69006" lon="5.63726">
        <ele>723.05</ele>
        <time>2013-08-20T13:15:13Z</time>
      </trkpt>
      <trkpt lat="46.69002" lon="5.63715">
        <ele>721.61</ele>
        <time>2013-08-20T13:15:28Z</time>
      </trkpt>
      <trkpt lat="46.68998" lon="5.63711">
        <ele>724.01</ele>
        <time>2013-08-20T13:15:46Z</time>
      </trkpt>
      <trkpt lat="46.69006" lon="5.63742">
        <ele>699.98</ele>
        <time>2013-08-20T13:15:52Z</time>
      </trkpt>
      <trkpt lat="46.6901" lon="5.6378">
        <ele>642.78</ele>
        <time>2013-08-20T13:16:02Z</time>
      </trkpt>
      <trkpt lat="46.69024" lon="5.63834">
        <ele>613.46</ele>
        <time>2013-08-20T13:16:18Z</time>
      </trkpt>
      <trkpt lat="46.69025" lon="5.63833">
        <ele>603.85</ele>
        <time>2013-08-20T13:16:32Z</time>
      </trkpt>
      <trkpt lat="46.69026" lon="5.63837">
        <ele>585.58</ele>
        <time>2013-08-20T13:16:36Z</time>
      </trkpt>
      <trkpt lat="46.69039" lon="5.63812">
        <ele>580.29</ele>
        <time>2013-08-20T13:16:58Z</time>
      </trkpt>
      <trkpt lat="46.6904" lon="5.63812">
        <ele>580.29</ele>
        <time>2013-08-20T13:16:59Z</time>
      </trkpt>
      <trkpt lat="46.6907" lon="5.63854">
        <ele>572.12</ele>
        <time>2013-08-20T13:17:18Z</time>
      </trkpt>
      <trkpt lat="46.69082" lon="5.63858">
        <ele>567.8</ele>
        <time>2013-08-20T13:17:24Z</time>
      </trkpt>
      <trkpt lat="46.69115" lon="5.63823">
        <ele>549.53</ele>
        <time>2013-08-20T13:17:45Z</time>
      </trkpt>
      <trkpt lat="46.69143" lon="5.63801">
        <ele>538.48</ele>
        <time>2013-08-20T13:18:02Z</time>
      </trkpt>
      <trkpt lat="46.69169" lon="5.63794">
        <ele>526.46</ele>
        <time>2013-08-20T13:18:20Z</time>
      </trkpt>
      <trkpt lat="46.69203" lon="5.63777">
        <ele>519.25</ele>
        <time>2013-08-20T13:18:39Z</time>
      </trkpt>
      <trkpt lat="46.69224" lon="5.63767">
        <ele>513</ele>
        <time>2013-08-20T13:18:57Z</time>
      </trkpt>
      <trkpt lat="46.69222" lon="5.63785">
        <ele>500.02</ele>
        <time>2013-08-20T13:19:13Z</time>
      </trkpt>
      <trkpt lat="46.69223" lon="5.63788">
        <ele>494.74</ele>
        <time>2013-08-20T13:19:26Z</time>
      </trkpt>
      <trkpt lat="46.69212" lon="5.63808">
        <ele>475.99</ele>
        <time>2013-08-20T13:19:44Z</time>
      </trkpt>
      <trkpt lat="46.6921" lon="5.63811">
        <ele>469.74</ele>
        <time>2013-08-20T13:19:53Z</time>
      </trkpt>
      <trkpt lat="46.69234" lon="5.63777">
        <ele>467.82</ele>
        <time>2013-08-20T13:20:09Z</time>
      </trkpt>
      <trkpt lat="46.69234" lon="5.63773">
        <ele>467.34</ele>
        <time>2013-08-20T13:20:11Z</time>
      </trkpt>
      <trkpt lat="46.69239" lon="5.6376">
        <ele>455.8</ele>
        <time>2013-08-20T13:20:21Z</time>
      </trkpt>
      <trkpt lat="46.69228" lon="5.63782">
        <ele>447.15</ele>
        <time>2013-08-20T13:20:38Z</time>
      </trkpt>
      <trkpt lat="46.69224" lon="5.63805">
        <ele>440.42</ele>
        <time>2013-08-20T13:20:55Z</time>
      </trkpt>
      <trkpt lat="46.69224" lon="5.63823">
        <ele>428.89</ele>
        <time>2013-08-20T13:21:13Z</time>
      </trkpt>
      <trkpt lat="46.69222" lon="5.63824">
        <ele>427.44</ele>
        <time>2013-08-20T13:21:15Z</time>
      </trkpt>
      <trkpt lat="46.69216" lon="5.63833">
        <ele>421.68</ele>
        <time>2013-08-20T13:21:37Z</time>
      </trkpt>
      <trkpt lat="46.69219" lon="5.63827">
        <ele>420.71</ele>
        <time>2013-08-20T13:21:54Z</time>
      </trkpt>
      <trkpt lat="46.69222" lon="5.63852">
        <ele>410.62</ele>
        <time>2013-08-20T13:22:11Z</time>
      </trkpt>
      <trkpt lat="46.69187" lon="5.63907">
        <ele>391.39</ele>
        <time>2013-08-20T13:22:29Z</time>
      </trkpt>
      <trkpt lat="46.69172" lon="5.63929">
        <ele>386.11</ele>
        <time>2013-08-20T13:22:50Z</time>
      </trkpt>
      <trkpt lat="46.69165" lon="5.63958">
        <ele>381.3</ele>
        <time>2013-08-20T13:23:06Z</time>
      </trkpt>
      <trkpt lat="46.69165" lon="5.63971">
        <ele>380.82</ele>
        <time>2013-08-20T13:23:19Z</time>
      </trkpt>
      <trkpt lat="46.69169" lon="5.63975">
        <ele>377.94</ele>
        <time>2013-08-20T13:23:38Z</time>
      </trkpt>
      <trkpt lat="46.69172" lon="5.63976">
        <ele>377.45</ele>
        <time>2013-08-20T13:24:01Z</time>
      </trkpt>
      <trkpt lat="46.69172" lon="5.63977">
        <ele>376.97</ele>
        <time>2013-08-20T13:24:05Z</time>
      </trkpt>
      <trkpt lat="46.6917" lon="5.64">
        <ele>376.49</ele>
        <time>2013-08-20T13:24:24Z</time>
      </trkpt>
      <trkpt lat="46.69214" lon="5.63994">
        <ele>374.57</ele>
        <time>2013-08-20T13:24:39Z</time>
      </trkpt>
      <trkpt lat="46.69239" lon="5.63988">
        <ele>374.09</ele>
        <time>2013-08-20T13:24:52Z</time>
      </trkpt>
      <trkpt lat="46.69279" lon="5.63956">
        <ele>370.73</ele>
        <time>2013-08-20T13:25:09Z</time>
      </trkpt>
      <trkpt lat="46.69292" lon="5.63948">
        <ele>361.11</ele>
        <time>2013-08-20T13:25:30Z</time>
      </trkpt>
      <trkpt lat="46.69292" lon="5.63948">
        <ele>360.15</ele>
        <time>2013-08-20T13:25:38Z</time>
      </trkpt>
      <trkpt lat="46.69283" lon="5.63977">
        <ele>356.31</ele>
        <time>2013-08-20T13:25:54Z</time>
      </trkpt>
      <trkpt lat="46.69299" lon="5.63964">
        <ele>353.9</ele>
        <time>2013-08-20T13:26:14Z</time>
      </trkpt>
      <trkpt lat="46.6931" lon="5.63954">
        <ele>351.02</ele>
        <time>2013-08-20T13:26:33Z</time>
      </trkpt>
      <trkpt lat="46.69306" lon="5.63978">
        <ele>339.48</ele>
        <time>2013-08-20T13:26:53Z</time>
      </trkpt>
      <trkpt lat="46.69307" lon="5.63979">
        <ele>336.6</ele>
        <time>2013-08-20T13:27:20Z</time>
      </trkpt>
      <trkpt lat="46.69313" lon="5.63977">
        <ele>336.12</ele>
        <time>2013-08-20T13:27:40Z</time>
      </trkpt>
      <trkpt lat="46.69314" lon="5.63982">
        <ele>335.64</ele>
        <time>2013-08-20T13:27:56Z</time>
      </trkpt>
      <trkpt lat="46.69322" lon="5.63991">
        <ele>335.64</ele>
        <time>2013-08-20T13:28:14Z</time>
      </trkpt>
      <trkpt lat="46.69324" lon="5.64002">
        <ele>335.64</ele>
        <time>2013-08-20T13:28:29Z</time>
      </trkpt>
      <trkpt lat="46.69341" lon="5.63995">
        <ele>336.12</ele>
        <time>2013-08-20T13:28:50Z</time>
      </trkpt>
      <trkpt lat="46.69359" lon="5.63991">
        <ele>333.71</ele>
        <time>2013-08-20T13:29:12Z</time>
      </trkpt>
      <trkpt lat="46.69362" lon="5.63992">
        <ele>332.75</ele>
        <time>2013-08-20T13:29:30Z</time>
      </trkpt>
      <trkpt lat="46.69385" lon="5.63989">
        <ele>332.27</ele>
        <time>2013-08-20T13:29:48Z</time>
      </trkpt>
      <trkpt lat="46.69412" lon="5.63999">
        <ele>332.27</ele>
        <time>2013-08-20T13:30:09Z</time>
      </trkpt>
      <trkpt lat="46.69419" lon="5.64022">
        <ele>332.27</ele>
        <time>2013-08-20T13:30:31Z</time>
      </trkpt>
      <trkpt lat="46.69429" lon="5.64032">
        <ele>331.79</ele>
        <time>2013-08-20T13:30:54Z</time>
      </trkpt>
      <trkpt lat="46.69441" lon="5.64048">
        <ele>331.79</ele>
        <time>2013-08-20T13:31:20Z</time>
      </trkpt>
      <trkpt lat="46.69448" lon="5.64039">
        <ele>329.87</ele>
        <time>2013-08-20T13:31:42Z</time>
      </trkpt>
      <trkpt lat="46.69449" lon="5.64048">
        <ele>328.43</ele>
        <time>2013-08-20T13:32:04Z</time>
      </trkpt>
      <trkpt lat="46.69493" lon="5.64098">
        <ele>327.95</ele>
        <time>2013-08-20T13:32:58Z</time>
      </trkpt>
      <trkpt lat="46.695" lon="5.64107">
        <ele>326.02</ele>
        <time>2013-08-20T13:33:12Z</time>
      </trkpt>
      <trkpt lat="46.69501" lon="5.64132">
        <ele>322.18</ele>
        <time>2013-08-20T13:33:29Z</time>
      </trkpt>
      <trkpt lat="46.69526" lon="5.64121">
        <ele>322.66</ele>
        <time>2013-08-20T13:33:46Z</time>
      </trkpt>
      <trkpt lat="46.69536" lon="5.64146">
        <ele>317.37</ele>
        <time>2013-08-20T13:34:08Z</time>
      </trkpt>
      <trkpt lat="46.69538" lon="5.6418">
        <ele>312.09</ele>
        <time>2013-08-20T13:34:26Z</time>
      </trkpt>
      <trkpt lat="46.69545" lon="5.64188">
        <ele>304.88</ele>
        <time>2013-08-20T13:34:44Z</time>
      </trkpt>
      <trkpt lat="46.69566" lon="5.64191">
        <ele>301.99</ele>
        <time>2013-08-20T13:35:02Z</time>
      </trkpt>
      <trkpt lat="46.69605" lon="5.64173">
        <ele>303.43</ele>
        <time>2013-08-20T13:35:19Z</time>
      </trkpt>
      <trkpt lat="46.69631" lon="5.6417">
        <ele>318.81</ele>
        <time>2013-08-20T13:35:35Z</time>
      </trkpt>
      <trkpt lat="46.69639" lon="5.6417">
        <ele>318.81</ele>
        <time>2013-08-20T13:35:52Z</time>
      </trkpt>
      <trkpt lat="46.69663" lon="5.64167">
        <ele>318.81</ele>
        <time>2013-08-20T13:36:10Z</time>
      </trkpt>
      <trkpt lat="46.69678" lon="5.64169">
        <ele>317.85</ele>
        <time>2013-08-20T13:36:29Z</time>
      </trkpt>
      <trkpt lat="46.697" lon="5.64169">
        <ele>319.3</ele>
        <time>2013-08-20T13:36:47Z</time>
      </trkpt>
      <trkpt lat="46.69722" lon="5.64172">
        <ele>320.26</ele>
        <time>2013-08-20T13:37:04Z</time>
      </trkpt>
      <trkpt lat="46.69735" lon="5.64173">
        <ele>319.3</ele>
        <time>2013-08-20T13:37:20Z</time>
      </trkpt>
      <trkpt lat="46.6975" lon="5.64173">
        <ele>318.33</ele>
        <time>2013-08-20T13:37:37Z</time>
      </trkpt>
      <trkpt lat="46.69764" lon="5.64174">
        <ele>317.85</ele>
        <time>2013-08-20T13:37:55Z</time>
      </trkpt>
      <trkpt lat="46.6979" lon="5.64166">
        <ele>316.89</ele>
        <time>2013-08-20T13:38:13Z</time>
      </trkpt>
      <trkpt lat="46.69807" lon="5.64164">
        <ele>317.85</ele>
        <time>2013-08-20T13:38:30Z</time>
      </trkpt>
      <trkpt lat="46.69815" lon="5.64166">
        <ele>317.85</ele>
        <time>2013-08-20T13:38:35Z</time>
      </trkpt>
      <trkpt lat="46.69839" lon="5.64169">
        <ele>318.81</ele>
        <time>2013-08-20T13:38:52Z</time>
      </trkpt>
      <trkpt lat="46.69853" lon="5.64165">
        <ele>318.33</ele>
        <time>2013-08-20T13:39:07Z</time>
      </trkpt>
      <trkpt lat="46.69864" lon="5.64161">
        <ele>317.85</ele>
        <time>2013-08-20T13:39:22Z</time>
      </trkpt>
      <trkpt lat="46.69871" lon="5.64162">
        <ele>318.33</ele>
        <time>2013-08-20T13:39:41Z</time>
      </trkpt>
      <trkpt lat="46.69883" lon="5.64164">
        <ele>318.33</ele>
        <time>2013-08-20T13:40:00Z</time>
      </trkpt>
      <trkpt lat="46.69903" lon="5.64165">
        <ele>317.85</ele>
        <time>2013-08-20T13:40:18Z</time>
      </trkpt>
      <trkpt lat="46.69918" lon="5.64163">
        <ele>317.37</ele>
        <time>2013-08-20T13:40:35Z</time>
      </trkpt>
      <trkpt lat="46.69932" lon="5.64167">
        <ele>317.37</ele>
        <time>2013-08-20T13:40:51Z</time>
      </trkpt>
      <trkpt lat="46.69943" lon="5.64174">
        <ele>317.37</ele>
        <time>2013-08-20T13:41:03Z</time>
      </trkpt>
      <trkpt lat="46.69957" lon="5.64183">
        <ele>318.81</ele>
        <time>2013-08-20T13:41:20Z</time>
      </trkpt>
      <trkpt lat="46.69969" lon="5.6419">
        <ele>318.33</ele>
        <time>2013-08-20T13:41:37Z</time>
      </trkpt>
      <trkpt lat="46.69988" lon="5.64205">
        <ele>319.78</ele>
        <time>2013-08-20T13:41:49Z</time>
      </trkpt>
      <trkpt lat="46.70009" lon="5.64212">
        <ele>324.1</ele>
        <time>2013-08-20T13:42:03Z</time>
      </trkpt>
      <trkpt lat="46.70019" lon="5.64218">
        <ele>326.02</ele>
        <time>2013-08-20T13:42:20Z</time>
      </trkpt>
      <trkpt lat="46.70023" lon="5.64218">
        <ele>326.99</ele>
        <time>2013-08-20T13:42:36Z</time>
      </trkpt>
      <trkpt lat="46.70035" lon="5.64221">
        <ele>330.83</ele>
        <time>2013-08-20T13:42:54Z</time>
      </trkpt>
      <trkpt lat="46.70051" lon="5.64233">
        <ele>330.35</ele>
        <time>2013-08-20T13:43:12Z</time>
      </trkpt>
      <trkpt lat="46.70068" lon="5.64254">
        <ele>330.83</ele>
        <time>2013-08-20T13:43:32Z</time>
      </trkpt>
      <trkpt lat="46.70097" lon="5.64278">
        <ele>329.87</ele>
        <time>2013-08-20T13:43:53Z</time>
      </trkpt>
      <trkpt lat="46.70111" lon="5.6429">
        <ele>329.87</ele>
        <time>2013-08-20T13:44:12Z</time>
      </trkpt>
      <trkpt lat="46.70122" lon="5.64299">
        <ele>330.83</ele>
        <time>2013-08-20T13:44:30Z</time>
      </trkpt>
      <trkpt lat="46.70133" lon="5.64309">
        <ele>332.75</ele>
        <time>2013-08-20T13:44:47Z</time>
      </trkpt>
      <trkpt lat="46.70135" lon="5.64326">
        <ele>331.79</ele>
        <time>2013-08-20T13:45:07Z</time>
      </trkpt>
      <trkpt lat="46.70149" lon="5.64342">
        <ele>324.58</ele>
        <time>2013-08-20T13:45:22Z</time>
      </trkpt>
      <trkpt lat="46.70166" lon="5.64353">
        <ele>319.78</ele>
        <time>2013-08-20T13:45:39Z</time>
      </trkpt>
      <trkpt lat="46.70187" lon="5.64357">
        <ele>322.66</ele>
        <time>2013-08-20T13:46:02Z</time>
      </trkpt>
      <trkpt lat="46.70189" lon="5.64358">
        <ele>322.18</ele>
        <time>2013-08-20T13:46:27Z</time>
      </trkpt>
      <trkpt lat="46.70191" lon="5.64358">
        <ele>322.18</ele>
        <time>2013-08-20T13:46:46Z</time>
      </trkpt>
      <trkpt lat="46.70192" lon="5.64358">
        <ele>322.66</ele>
        <time>2013-08-20T13:47:01Z</time>
      </trkpt>
      <trkpt lat="46.70193" lon="5.64358">
        <ele>321.7</ele>
        <time>2013-08-20T13:47:22Z</time>
      </trkpt>
      <trkpt lat="46.70194" lon="5.64358">
        <ele>321.7</ele>
        <time>2013-08-20T13:47:43Z</time>
      </trkpt>
      <trkpt lat="46.70194" lon="5.64358">
        <ele>320.74</ele>
        <time>2013-08-20T13:48:07Z</time>
      </trkpt>
      <trkpt lat="46.70195" lon="5.64359">
        <ele>319.78</ele>
        <time>2013-08-20T13:48:31Z</time>
      </trkpt>
      <trkpt lat="46.70195" lon="5.64358">
        <ele>319.78</ele>
        <time>2013-08-20T13:48:53Z</time>
      </trkpt>
      <trkpt lat="46.70195" lon="5.64359">
        <ele>319.78</ele>
        <time>2013-08-20T13:49:15Z</time>
      </trkpt>
      <trkpt lat="46.70196" lon="5.6436">
        <ele>318.81</ele>
        <time>2013-08-20T13:49:32Z</time>
      </trkpt>
      <trkpt lat="46.70196" lon="5.64361">
        <ele>318.33</ele>
        <time>2013-08-20T13:49:47Z</time>
      </trkpt>
      <trkpt lat="46.70197" lon="5.64362">
        <ele>317.85</ele>
        <time>2013-08-20T13:50:04Z</time>
      </trkpt>
      <trkpt lat="46.70197" lon="5.64363">
        <ele>316.89</ele>
        <time>2013-08-20T13:50:23Z</time>
      </trkpt>
      <trkpt lat="46.70198" lon="5.64363">
        <ele>317.37</ele>
        <time>2013-08-20T13:50:46Z</time>
      </trkpt>
      <trkpt lat="46.70198" lon="5.64363">
        <ele>316.89</ele>
        <time>2013-08-20T13:51:14Z</time>
      </trkpt>
      <trkpt lat="46.70185" lon="5.64363">
        <ele>316.89</ele>
        <time>2013-08-20T13:51:50Z</time>
      </trkpt>
      <trkpt lat="46.70194" lon="5.64369">
        <ele>320.74</ele>
        <time>2013-08-20T13:52:12Z</time>
      </trkpt>
      <trkpt lat="46.702" lon="5.64358">
        <ele>322.18</ele>
        <time>2013-08-20T13:52:38Z</time>
      </trkpt>
      <trkpt lat="46.70199" lon="5.64353">
        <ele>318.33</ele>
        <time>2013-08-20T13:53:02Z</time>
      </trkpt>
      <trkpt lat="46.70199" lon="5.64359">
        <ele>310.64</ele>
        <time>2013-08-20T13:53:22Z</time>
      </trkpt>
      <trkpt lat="46.70201" lon="5.64356">
        <ele>312.09</ele>
        <time>2013-08-20T13:53:40Z</time>
      </trkpt>
      <trkpt lat="46.70202" lon="5.64356">
        <ele>314.97</ele>
        <time>2013-08-20T13:53:55Z</time>
      </trkpt>
      <trkpt lat="46.70204" lon="5.64356">
        <ele>317.37</ele>
        <time>2013-08-20T13:54:13Z</time>
      </trkpt>
      <trkpt lat="46.70236" lon="5.6436">
        <ele>313.05</ele>
        <time>2013-08-20T13:54:34Z</time>
      </trkpt>
      <trkpt lat="46.70251" lon="5.6436">
        <ele>314.49</ele>
        <time>2013-08-20T13:54:47Z</time>
      </trkpt>
      <trkpt lat="46.70265" lon="5.64365">
        <ele>314.01</ele>
        <time>2013-08-20T13:55:01Z</time>
      </trkpt>
      <trkpt lat="46.70282" lon="5.6437">
        <ele>309.68</ele>
        <time>2013-08-20T13:55:26Z</time>
      </trkpt>
      <trkpt lat="46.70301" lon="5.64375">
        <ele>313.05</ele>
        <time>2013-08-20T13:55:48Z</time>
      </trkpt>
      <trkpt lat="46.7032" lon="5.64389">
        <ele>315.45</ele>
        <time>2013-08-20T13:56:07Z</time>
      </trkpt>
      <trkpt lat="46.70321" lon="5.64397">
        <ele>314.97</ele>
        <time>2013-08-20T13:56:22Z</time>
      </trkpt>
      <trkpt lat="46.70321" lon="5.644">
        <ele>314.97</ele>
        <time>2013-08-20T13:56:24Z</time>
      </trkpt>
      <trkpt lat="46.70327" lon="5.6443">
        <ele>314.49</ele>
        <time>2013-08-20T13:56:42Z</time>
      </trkpt>
      <trkpt lat="46.70346" lon="5.64448">
        <ele>316.41</ele>
        <time>2013-08-20T13:56:57Z</time>
      </trkpt>
      <trkpt lat="46.70373" lon="5.64469">
        <ele>320.26</ele>
        <time>2013-08-20T13:57:16Z</time>
      </trkpt>
      <trkpt lat="46.70395" lon="5.64484">
        <ele>323.14</ele>
        <time>2013-08-20T13:57:31Z</time>
      </trkpt>
      <trkpt lat="46.70396" lon="5.64487">
        <ele>324.1</ele>
        <time>2013-08-20T13:57:45Z</time>
      </trkpt>
      <trkpt lat="46.70399" lon="5.64489">
        <ele>326.02</ele>
        <time>2013-08-20T13:58:11Z</time>
      </trkpt>
      <trkpt lat="46.70401" lon="5.64489">
        <ele>326.99</ele>
        <time>2013-08-20T13:58:32Z</time>
      </trkpt>
      <trkpt lat="46.70401" lon="5.64489">
        <ele>326.99</ele>
        <time>2013-08-20T13:58:44Z</time>
      </trkpt>
      <trkpt lat="46.70403" lon="5.64493">
        <ele>328.43</ele>
        <time>2013-08-20T13:58:57Z</time>
      </trkpt>
      <trkpt lat="46.70407" lon="5.645">
        <ele>328.43</ele>
        <time>2013-08-20T13:59:15Z</time>
      </trkpt>
      <trkpt lat="46.70415" lon="5.64513">
        <ele>326.99</ele>
        <time>2013-08-20T13:59:30Z</time>
      </trkpt>
      <trkpt lat="46.70418" lon="5.64518">
        <ele>326.5</ele>
        <time>2013-08-20T13:59:45Z</time>
      </trkpt>
      <trkpt lat="46.70419" lon="5.64522">
        <ele>326.5</ele>
        <time>2013-08-20T14:00:02Z</time>
      </trkpt>
      <trkpt lat="46.70422" lon="5.64525">
        <ele>326.02</ele>
        <time>2013-08-20T14:00:26Z</time>
      </trkpt>
      <trkpt lat="46.70425" lon="5.64528">
        <ele>326.99</ele>
        <time>2013-08-20T14:00:46Z</time>
      </trkpt>
      <trkpt lat="46.70425" lon="5.64529">
        <ele>326.99</ele>
        <time>2013-08-20T14:01:07Z</time>
      </trkpt>
      <trkpt lat="46.70425" lon="5.64529">
        <ele>326.5</ele>
        <time>2013-08-20T14:01:28Z</time>
      </trkpt>
      <trkpt lat="46.70425" lon="5.64532">
        <ele>326.02</ele>
        <time>2013-08-20T14:01:51Z</time>
      </trkpt>
      <trkpt lat="46.70418" lon="5.64553">
        <ele>324.58</ele>
        <time>2013-08-20T14:02:08Z</time>
      </trkpt>
      <trkpt lat="46.70413" lon="5.64568">
        <ele>324.58</ele>
        <time>2013-08-20T14:02:24Z</time>
      </trkpt>
      <trkpt lat="46.70413" lon="5.64572">
        <ele>324.1</ele>
        <time>2013-08-20T14:02:41Z</time>
      </trkpt>
      <trkpt lat="46.70413" lon="5.64573">
        <ele>324.1</ele>
        <time>2013-08-20T14:03:06Z</time>
      </trkpt>
      <trkpt lat="46.70409" lon="5.64576">
        <ele>323.14</ele>
        <time>2013-08-20T14:03:25Z</time>
      </trkpt>
      <trkpt lat="46.70409" lon="5.64578">
        <ele>321.7</ele>
        <time>2013-08-20T14:03:39Z</time>
      </trkpt>
      <trkpt lat="46.70408" lon="5.6458">
        <ele>320.74</ele>
        <time>2013-08-20T14:03:56Z</time>
      </trkpt>
      <trkpt lat="46.70406" lon="5.64581">
        <ele>319.78</ele>
        <time>2013-08-20T14:04:29Z</time>
      </trkpt>
      <trkpt lat="46.70405" lon="5.64583">
        <ele>319.3</ele>
        <time>2013-08-20T14:04:49Z</time>
      </trkpt>
      <trkpt lat="46.70406" lon="5.64583">
        <ele>318.81</ele>
        <time>2013-08-20T14:05:09Z</time>
      </trkpt>
      <trkpt lat="46.70406" lon="5.64583">
        <ele>318.81</ele>
        <time>2013-08-20T14:05:30Z</time>
      </trkpt>
      <trkpt lat="46.70405" lon="5.64586">
        <ele>318.81</ele>
        <time>2013-08-20T14:05:46Z</time>
      </trkpt>
      <trkpt lat="46.70406" lon="5.64597">
        <ele>318.33</ele>
        <time>2013-08-20T14:05:54Z</time>
      </trkpt>
      <trkpt lat="46.70417" lon="5.6461">
        <ele>317.37</ele>
        <time>2013-08-20T14:06:11Z</time>
      </trkpt>
      <trkpt lat="46.70417" lon="5.64612">
        <ele>317.37</ele>
        <time>2013-08-20T14:06:34Z</time>
      </trkpt>
      <trkpt lat="46.7042" lon="5.64616">
        <ele>316.89</ele>
        <time>2013-08-20T14:06:55Z</time>
      </trkpt>
      <trkpt lat="46.70426" lon="5.6462">
        <ele>316.89</ele>
        <time>2013-08-20T14:07:00Z</time>
      </trkpt>
      <trkpt lat="46.70447" lon="5.64633">
        <ele>316.41</ele>
        <time>2013-08-20T14:07:19Z</time>
      </trkpt>
      <trkpt lat="46.70457" lon="5.64639">
        <ele>316.41</ele>
        <time>2013-08-20T14:07:33Z</time>
      </trkpt>
      <trkpt lat="46.70476" lon="5.6465">
        <ele>315.45</ele>
        <time>2013-08-20T14:07:53Z</time>
      </trkpt>
      <trkpt lat="46.70502" lon="5.6466">
        <ele>314.97</ele>
        <time>2013-08-20T14:08:12Z</time>
      </trkpt>
      <trkpt lat="46.70504" lon="5.64662">
        <ele>314.97</ele>
        <time>2013-08-20T14:08:30Z</time>
      </trkpt>
      <trkpt lat="46.70511" lon="5.64663">
        <ele>314.97</ele>
        <time>2013-08-20T14:08:49Z</time>
      </trkpt>
      <trkpt lat="46.70528" lon="5.64664">
        <ele>318.33</ele>
        <time>2013-08-20T14:09:04Z</time>
      </trkpt>
      <trkpt lat="46.70532" lon="5.64663">
        <ele>318.33</ele>
        <time>2013-08-20T14:09:23Z</time>
      </trkpt>
      <trkpt lat="46.70537" lon="5.64663">
        <ele>317.85</ele>
        <time>2013-08-20T14:09:46Z</time>
      </trkpt>
      <trkpt lat="46.70544" lon="5.64661">
        <ele>317.37</ele>
        <time>2013-08-20T14:09:59Z</time>
      </trkpt>
      <trkpt lat="46.70548" lon="5.6466">
        <ele>317.85</ele>
        <time>2013-08-20T14:10:04Z</time>
      </trkpt>
      <trkpt lat="46.70553" lon="5.64659">
        <ele>317.85</ele>
        <time>2013-08-20T14:10:07Z</time>
      </trkpt>
      <trkpt lat="46.7057" lon="5.64654">
        <ele>317.37</ele>
        <time>2013-08-20T14:10:21Z</time>
      </trkpt>
      <trkpt lat="46.70583" lon="5.64649">
        <ele>316.89</ele>
        <time>2013-08-20T14:10:40Z</time>
      </trkpt>
      <trkpt lat="46.70591" lon="5.64648">
        <ele>316.89</ele>
        <time>2013-08-20T14:10:47Z</time>
      </trkpt>
      <trkpt lat="46.70655" lon="5.64664">
        <ele>315.45</ele>
        <time>2013-08-20T14:11:07Z</time>
      </trkpt>
      <trkpt lat="46.70675" lon="5.64663">
        <ele>315.45</ele>
        <time>2013-08-20T14:11:23Z</time>
      </trkpt>
      <trkpt lat="46.7068" lon="5.64662">
        <ele>314.49</ele>
        <time>2013-08-20T14:11:36Z</time>
      </trkpt>
      <trkpt lat="46.70691" lon="5.64654">
        <ele>312.57</ele>
        <time>2013-08-20T14:11:48Z</time>
      </trkpt>
      <trkpt lat="46.70706" lon="5.64648">
        <ele>311.12</ele>
        <time>2013-08-20T14:12:01Z</time>
      </trkpt>
      <trkpt lat="46.70711" lon="5.64648">
        <ele>311.12</ele>
        <time>2013-08-20T14:12:16Z</time>
      </trkpt>
      <trkpt lat="46.70717" lon="5.64648">
        <ele>310.16</ele>
        <time>2013-08-20T14:12:41Z</time>
      </trkpt>
      <trkpt lat="46.70728" lon="5.64639">
        <ele>310.16</ele>
        <time>2013-08-20T14:12:57Z</time>
      </trkpt>
      <trkpt lat="46.70743" lon="5.64631">
        <ele>310.16</ele>
        <time>2013-08-20T14:13:08Z</time>
      </trkpt>
      <trkpt lat="46.70774" lon="5.64622">
        <ele>310.16</ele>
        <time>2013-08-20T14:13:26Z</time>
      </trkpt>
      <trkpt lat="46.70786" lon="5.6461">
        <ele>308.72</ele>
        <time>2013-08-20T14:13:40Z</time>
      </trkpt>
      <trkpt lat="46.70814" lon="5.64606">
        <ele>307.76</ele>
        <time>2013-08-20T14:14:01Z</time>
      </trkpt>
      <trkpt lat="46.70839" lon="5.64593">
        <ele>307.76</ele>
        <time>2013-08-20T14:14:21Z</time>
      </trkpt>
      <trkpt lat="46.70844" lon="5.6459">
        <ele>307.76</ele>
        <time>2013-08-20T14:14:26Z</time>
      </trkpt>
      <trkpt lat="46.70876" lon="5.64569">
        <ele>308.24</ele>
        <time>2013-08-20T14:14:51Z</time>
      </trkpt>
      <trkpt lat="46.70892" lon="5.64546">
        <ele>308.24</ele>
        <time>2013-08-20T14:15:07Z</time>
      </trkpt>
      <trkpt lat="46.70899" lon="5.64528">
        <ele>308.24</ele>
        <time>2013-08-20T14:15:18Z</time>
      </trkpt>
      <trkpt lat="46.70902" lon="5.64509">
        <ele>308.24</ele>
        <time>2013-08-20T14:15:36Z</time>
      </trkpt>
      <trkpt lat="46.70923" lon="5.64492">
        <ele>308.24</ele>
        <time>2013-08-20T14:15:54Z</time>
      </trkpt>
      <trkpt lat="46.70925" lon="5.64492">
        <ele>308.24</ele>
        <time>2013-08-20T14:15:55Z</time>
      </trkpt>
      <trkpt lat="46.70953" lon="5.64487">
        <ele>308.72</ele>
        <time>2013-08-20T14:16:14Z</time>
      </trkpt>
      <trkpt lat="46.70956" lon="5.64478">
        <ele>308.72</ele>
        <time>2013-08-20T14:16:27Z</time>
      </trkpt>
      <trkpt lat="46.70959" lon="5.64472">
        <ele>308.72</ele>
        <time>2013-08-20T14:16:33Z</time>
      </trkpt>
      <trkpt lat="46.70974" lon="5.64464">
        <ele>308.72</ele>
        <time>2013-08-20T14:16:48Z</time>
      </trkpt>
      <trkpt lat="46.70995" lon="5.64454">
        <ele>308.72</ele>
        <time>2013-08-20T14:17:06Z</time>
      </trkpt>
      <trkpt lat="46.71001" lon="5.64443">
        <ele>310.64</ele>
        <time>2013-08-20T14:17:22Z</time>
      </trkpt>
      <trkpt lat="46.71014" lon="5.64431">
        <ele>313.05</ele>
        <time>2013-08-20T14:17:30Z</time>
      </trkpt>
      <trkpt lat="46.71027" lon="5.64411">
        <ele>313.05</ele>
        <time>2013-08-20T14:17:48Z</time>
      </trkpt>
      <trkpt lat="46.71031" lon="5.64407">
        <ele>313.05</ele>
        <time>2013-08-20T14:17:51Z</time>
      </trkpt>
      <trkpt lat="46.71038" lon="5.644">
        <ele>313.05</ele>
        <time>2013-08-20T14:17:56Z</time>
      </trkpt>
      <trkpt lat="46.71042" lon="5.64393">
        <ele>313.05</ele>
        <time>2013-08-20T14:18:00Z</time>
      </trkpt>
      <trkpt lat="46.71056" lon="5.64371">
        <ele>313.05</ele>
        <time>2013-08-20T14:18:17Z</time>
      </trkpt>
      <trkpt lat="46.71069" lon="5.64353">
        <ele>313.05</ele>
        <time>2013-08-20T14:18:31Z</time>
      </trkpt>
      <trkpt lat="46.71081" lon="5.64321">
        <ele>313.05</ele>
        <time>2013-08-20T14:18:52Z</time>
      </trkpt>
      <trkpt lat="46.71094" lon="5.64294">
        <ele>313.53</ele>
        <time>2013-08-20T14:19:10Z</time>
      </trkpt>
      <trkpt lat="46.71102" lon="5.64265">
        <ele>313.53</ele>
        <time>2013-08-20T14:19:27Z</time>
      </trkpt>
      <trkpt lat="46.71103" lon="5.64236">
        <ele>313.05</ele>
        <time>2013-08-20T14:19:42Z</time>
      </trkpt>
      <trkpt lat="46.71107" lon="5.64212">
        <ele>313.05</ele>
        <time>2013-08-20T14:19:54Z</time>
      </trkpt>
      <trkpt lat="46.71111" lon="5.64197">
        <ele>313.05</ele>
        <time>2013-08-20T14:20:03Z</time>
      </trkpt>
      <trkpt lat="46.71115" lon="5.64164">
        <ele>313.05</ele>
        <time>2013-08-20T14:20:20Z</time>
      </trkpt>
      <trkpt lat="46.71117" lon="5.64141">
        <ele>313.05</ele>
        <time>2013-08-20T14:20:33Z</time>
      </trkpt>
      <trkpt lat="46.71122" lon="5.64127">
        <ele>313.05</ele>
        <time>2013-08-20T14:20:52Z</time>
      </trkpt>
      <trkpt lat="46.71123" lon="5.64126">
        <ele>312.57</ele>
        <time>2013-08-20T14:21:17Z</time>
      </trkpt>
      <trkpt lat="46.71125" lon="5.64126">
        <ele>312.57</ele>
        <time>2013-08-20T14:21:28Z</time>
      </trkpt>
      <trkpt lat="46.71136" lon="5.641">
        <ele>312.57</ele>
        <time>2013-08-20T14:21:44Z</time>
      </trkpt>
      <trkpt lat="46.71145" lon="5.64093">
        <ele>312.57</ele>
        <time>2013-08-20T14:21:57Z</time>
      </trkpt>
      <trkpt lat="46.71142" lon="5.64088">
        <ele>312.57</ele>
        <time>2013-08-20T14:22:01Z</time>
      </trkpt>
      <trkpt lat="46.71141" lon="5.64082">
        <ele>312.09</ele>
        <time>2013-08-20T14:22:16Z</time>
      </trkpt>
      <trkpt lat="46.71149" lon="5.64086">
        <ele>311.6</ele>
        <time>2013-08-20T14:22:38Z</time>
      </trkpt>
      <trkpt lat="46.71144" lon="5.64085">
        <ele>319.3</ele>
        <time>2013-08-20T14:23:05Z</time>
      </trkpt>
      <trkpt lat="46.71166" lon="5.64092">
        <ele>316.41</ele>
        <time>2013-08-20T14:23:32Z</time>
      </trkpt>
      <trkpt lat="46.71171" lon="5.64096">
        <ele>292.38</ele>
        <time>2013-08-20T14:23:58Z</time>
      </trkpt>
    </trkseg>
  </trk>
</gpx>